<?xml version="1.0" encoding="UTF-8"?>
<gpx xmlns="http://www.topografix.com/GPX/1/1" xmlns:xsi="http://www.w3.org/2001/XMLSchema-instance" version="1.1" xsi:schemaLocation="http://www.topografix.com/GPX/1/1 http://www.topografix.com/GPX/1/1/gpx.xsd">
  <metadata>
    <name>XTERRA Cameron Park Off-Road Triathlon</name>
  </metadata>
  <trk>
    <name>XTERRA Cameron Park Off-Road Triathlon</name>
    <trkseg>
      <trkpt lat="31.575908" lon="-97.1481">
        <ele>123.302755</ele>
        <time>2025-06-07T08:16:00.000Z</time>
      </trkpt>
      <trkpt lat="31.575966" lon="-97.148234">
        <ele>123.302751</ele>
        <time>2025-06-07T08:16:01.000Z</time>
      </trkpt>
      <trkpt lat="31.576204" lon="-97.148465">
        <ele>123.302751</ele>
        <time>2025-06-07T08:16:04.000Z</time>
      </trkpt>
      <trkpt lat="31.577053" lon="-97.149006">
        <ele>123.710911</ele>
        <time>2025-06-07T08:16:15.000Z</time>
      </trkpt>
      <trkpt lat="31.577171" lon="-97.149">
        <ele>123.803885</ele>
        <time>2025-06-07T08:16:16.000Z</time>
      </trkpt>
      <trkpt lat="31.577243" lon="-97.148938">
        <ele>123.874142</ele>
        <time>2025-06-07T08:16:17.000Z</time>
      </trkpt>
      <trkpt lat="31.577295" lon="-97.149003">
        <ele>123.938415</ele>
        <time>2025-06-07T08:16:18.000Z</time>
      </trkpt>
      <trkpt lat="31.577447" lon="-97.149257">
        <ele>124.155305</ele>
        <time>2025-06-07T08:16:21.000Z</time>
      </trkpt>
      <trkpt lat="31.577575" lon="-97.149271">
        <ele>124.261003</ele>
        <time>2025-06-07T08:16:22.000Z</time>
      </trkpt>
      <trkpt lat="31.577655" lon="-97.14919">
        <ele>124.353293</ele>
        <time>2025-06-07T08:16:23.000Z</time>
      </trkpt>
      <trkpt lat="31.577749" lon="-97.149287">
        <ele>124.456287</ele>
        <time>2025-06-07T08:16:24.000Z</time>
      </trkpt>
      <trkpt lat="31.578005" lon="-97.149504">
        <ele>124.709102</ele>
        <time>2025-06-07T08:16:28.000Z</time>
      </trkpt>
      <trkpt lat="31.578678" lon="-97.150009">
        <ele>127.473095</ele>
        <time>2025-06-07T08:16:37.000Z</time>
      </trkpt>
      <trkpt lat="31.578795" lon="-97.150102">
        <ele>128.04915</ele>
        <time>2025-06-07T08:16:39.000Z</time>
      </trkpt>
      <trkpt lat="31.578903" lon="-97.150225">
        <ele>128.568428</ele>
        <time>2025-06-07T08:16:41.000Z</time>
      </trkpt>
      <trkpt lat="31.578976" lon="-97.150415">
        <ele>129.246548</ele>
        <time>2025-06-07T08:16:43.000Z</time>
      </trkpt>
      <trkpt lat="31.578974" lon="-97.150837">
        <ele>130.607835</ele>
        <time>2025-06-07T08:16:47.000Z</time>
      </trkpt>
      <trkpt lat="31.578941" lon="-97.151285">
        <ele>132.11858</ele>
        <time>2025-06-07T08:16:51.000Z</time>
      </trkpt>
      <trkpt lat="31.578806" lon="-97.151818">
        <ele>134.119272</ele>
        <time>2025-06-07T08:16:56.000Z</time>
      </trkpt>
      <trkpt lat="31.578802" lon="-97.151978">
        <ele>134.682352</ele>
        <time>2025-06-07T08:16:58.000Z</time>
      </trkpt>
      <trkpt lat="31.57883" lon="-97.152461">
        <ele>136.42898</ele>
        <time>2025-06-07T08:17:03.000Z</time>
      </trkpt>
      <trkpt lat="31.578951" lon="-97.152826">
        <ele>137.815899</ele>
        <time>2025-06-07T08:17:07.000Z</time>
      </trkpt>
      <trkpt lat="31.579172" lon="-97.15322">
        <ele>139.405015</ele>
        <time>2025-06-07T08:17:11.000Z</time>
      </trkpt>
      <trkpt lat="31.579778" lon="-97.153932">
        <ele>142.142828</ele>
        <time>2025-06-07T08:17:21.000Z</time>
      </trkpt>
      <trkpt lat="31.579985" lon="-97.154075">
        <ele>142.906757</ele>
        <time>2025-06-07T08:17:24.000Z</time>
      </trkpt>
      <trkpt lat="31.580415" lon="-97.154228">
        <ele>144.355718</ele>
        <time>2025-06-07T08:17:29.000Z</time>
      </trkpt>
      <trkpt lat="31.580451" lon="-97.154107">
        <ele>144.725864</ele>
        <time>2025-06-07T08:17:30.000Z</time>
      </trkpt>
      <trkpt lat="31.580441" lon="-97.154109">
        <ele>144.743889</ele>
        <time>2025-06-07T08:17:30.000Z</time>
      </trkpt>
      <trkpt lat="31.580474" lon="-97.154073">
        <ele>144.847943</ele>
        <time>2025-06-07T08:17:31.000Z</time>
      </trkpt>
      <trkpt lat="31.580522" lon="-97.153933">
        <ele>144.906812</ele>
        <time>2025-06-07T08:17:32.000Z</time>
      </trkpt>
      <trkpt lat="31.580523" lon="-97.153891">
        <ele>144.919816</ele>
        <time>2025-06-07T08:17:32.000Z</time>
      </trkpt>
      <trkpt lat="31.580614" lon="-97.153603">
        <ele>145.030973</ele>
        <time>2025-06-07T08:17:35.000Z</time>
      </trkpt>
      <trkpt lat="31.580733" lon="-97.153387">
        <ele>145.115352</ele>
        <time>2025-06-07T08:17:37.000Z</time>
      </trkpt>
      <trkpt lat="31.580899" lon="-97.153342">
        <ele>145.188776</ele>
        <time>2025-06-07T08:17:39.000Z</time>
      </trkpt>
      <trkpt lat="31.58098" lon="-97.153361">
        <ele>145.222298</ele>
        <time>2025-06-07T08:17:40.000Z</time>
      </trkpt>
      <trkpt lat="31.581024" lon="-97.153347">
        <ele>145.234115</ele>
        <time>2025-06-07T08:17:41.000Z</time>
      </trkpt>
      <trkpt lat="31.581143" lon="-97.153235">
        <ele>145.301513</ele>
        <time>2025-06-07T08:17:43.000Z</time>
      </trkpt>
      <trkpt lat="31.58117" lon="-97.153204">
        <ele>145.316492</ele>
        <time>2025-06-07T08:17:43.000Z</time>
      </trkpt>
      <trkpt lat="31.581192" lon="-97.153171">
        <ele>145.329256</ele>
        <time>2025-06-07T08:17:43.000Z</time>
      </trkpt>
      <trkpt lat="31.58121" lon="-97.153137">
        <ele>145.343069</ele>
        <time>2025-06-07T08:17:43.000Z</time>
      </trkpt>
      <trkpt lat="31.581242" lon="-97.153083">
        <ele>145.368293</ele>
        <time>2025-06-07T08:17:44.000Z</time>
      </trkpt>
      <trkpt lat="31.5813" lon="-97.153073">
        <ele>145.389275</ele>
        <time>2025-06-07T08:17:45.000Z</time>
      </trkpt>
      <trkpt lat="31.581308" lon="-97.153088">
        <ele>145.396542</ele>
        <time>2025-06-07T08:17:45.000Z</time>
      </trkpt>
      <trkpt lat="31.581351" lon="-97.153033">
        <ele>145.418801</ele>
        <time>2025-06-07T08:17:46.000Z</time>
      </trkpt>
      <trkpt lat="31.581228" lon="-97.153482">
        <ele>145.580311</ele>
        <time>2025-06-07T08:17:50.000Z</time>
      </trkpt>
      <trkpt lat="31.580951" lon="-97.153741">
        <ele>145.375407</ele>
        <time>2025-06-07T08:17:54.000Z</time>
      </trkpt>
      <trkpt lat="31.580894" lon="-97.153839">
        <ele>145.317709</ele>
        <time>2025-06-07T08:17:55.000Z</time>
      </trkpt>
      <trkpt lat="31.580784" lon="-97.154154">
        <ele>145.147449</ele>
        <time>2025-06-07T08:17:58.000Z</time>
      </trkpt>
      <trkpt lat="31.580853" lon="-97.154219">
        <ele>145.088688</ele>
        <time>2025-06-07T08:17:59.000Z</time>
      </trkpt>
      <trkpt lat="31.581012" lon="-97.154187">
        <ele>144.995418</ele>
        <time>2025-06-07T08:18:01.000Z</time>
      </trkpt>
      <trkpt lat="31.581028" lon="-97.154269">
        <ele>144.947299</ele>
        <time>2025-06-07T08:18:02.000Z</time>
      </trkpt>
      <trkpt lat="31.581107" lon="-97.154375">
        <ele>144.870944</ele>
        <time>2025-06-07T08:18:03.000Z</time>
      </trkpt>
      <trkpt lat="31.581011" lon="-97.154553">
        <ele>144.769478</ele>
        <time>2025-06-07T08:18:05.000Z</time>
      </trkpt>
      <trkpt lat="31.581082" lon="-97.154784">
        <ele>144.637956</ele>
        <time>2025-06-07T08:18:07.000Z</time>
      </trkpt>
      <trkpt lat="31.58115" lon="-97.154914">
        <ele>144.56395</ele>
        <time>2025-06-07T08:18:08.000Z</time>
      </trkpt>
      <trkpt lat="31.581167" lon="-97.155045">
        <ele>144.49463</ele>
        <time>2025-06-07T08:18:09.000Z</time>
      </trkpt>
      <trkpt lat="31.581249" lon="-97.155185">
        <ele>144.371376</ele>
        <time>2025-06-07T08:18:11.000Z</time>
      </trkpt>
      <trkpt lat="31.58125" lon="-97.155281">
        <ele>144.288932</ele>
        <time>2025-06-07T08:18:12.000Z</time>
      </trkpt>
      <trkpt lat="31.581213" lon="-97.155334">
        <ele>144.229355</ele>
        <time>2025-06-07T08:18:13.000Z</time>
      </trkpt>
      <trkpt lat="31.581108" lon="-97.155385">
        <ele>144.140908</ele>
        <time>2025-06-07T08:18:14.000Z</time>
      </trkpt>
      <trkpt lat="31.581111" lon="-97.155447">
        <ele>144.090219</ele>
        <time>2025-06-07T08:18:15.000Z</time>
      </trkpt>
      <trkpt lat="31.581152" lon="-97.155623">
        <ele>143.953539</ele>
        <time>2025-06-07T08:18:17.000Z</time>
      </trkpt>
      <trkpt lat="31.581475" lon="-97.155556">
        <ele>143.657293</ele>
        <time>2025-06-07T08:18:21.000Z</time>
      </trkpt>
      <trkpt lat="31.581522" lon="-97.155594">
        <ele>143.60496</ele>
        <time>2025-06-07T08:18:22.000Z</time>
      </trkpt>
      <trkpt lat="31.581612" lon="-97.155783">
        <ele>143.450148</ele>
        <time>2025-06-07T08:18:24.000Z</time>
      </trkpt>
      <trkpt lat="31.581704" lon="-97.15615">
        <ele>143.165164</ele>
        <time>2025-06-07T08:18:28.000Z</time>
      </trkpt>
      <trkpt lat="31.581766" lon="-97.156277">
        <ele>143.057876</ele>
        <time>2025-06-07T08:18:29.000Z</time>
      </trkpt>
      <trkpt lat="31.581773" lon="-97.156331">
        <ele>143.019516</ele>
        <time>2025-06-07T08:18:30.000Z</time>
      </trkpt>
      <trkpt lat="31.581725" lon="-97.156335">
        <ele>142.984163</ele>
        <time>2025-06-07T08:18:31.000Z</time>
      </trkpt>
      <trkpt lat="31.581648" lon="-97.156326">
        <ele>142.95829</ele>
        <time>2025-06-07T08:18:32.000Z</time>
      </trkpt>
      <trkpt lat="31.581416" lon="-97.156492">
        <ele>143.393052</ele>
        <time>2025-06-07T08:18:35.000Z</time>
      </trkpt>
      <trkpt lat="31.581328" lon="-97.156472">
        <ele>143.553791</ele>
        <time>2025-06-07T08:18:36.000Z</time>
      </trkpt>
      <trkpt lat="31.581296" lon="-97.156516">
        <ele>143.649473</ele>
        <time>2025-06-07T08:18:37.000Z</time>
      </trkpt>
      <trkpt lat="31.581297" lon="-97.156564">
        <ele>143.706764</ele>
        <time>2025-06-07T08:18:37.000Z</time>
      </trkpt>
      <trkpt lat="31.581285" lon="-97.156648">
        <ele>143.823956</ele>
        <time>2025-06-07T08:18:38.000Z</time>
      </trkpt>
      <trkpt lat="31.581359" lon="-97.156692">
        <ele>143.955618</ele>
        <time>2025-06-07T08:18:39.000Z</time>
      </trkpt>
      <trkpt lat="31.581392" lon="-97.156768">
        <ele>144.098831</ele>
        <time>2025-06-07T08:18:40.000Z</time>
      </trkpt>
      <trkpt lat="31.581468" lon="-97.156865">
        <ele>144.262924</ele>
        <time>2025-06-07T08:18:41.000Z</time>
      </trkpt>
      <trkpt lat="31.581518" lon="-97.156891">
        <ele>144.361828</ele>
        <time>2025-06-07T08:18:42.000Z</time>
      </trkpt>
      <trkpt lat="31.581677" lon="-97.156782">
        <ele>144.674306</ele>
        <time>2025-06-07T08:18:44.000Z</time>
      </trkpt>
      <trkpt lat="31.581746" lon="-97.156784">
        <ele>144.790439</ele>
        <time>2025-06-07T08:18:45.000Z</time>
      </trkpt>
      <trkpt lat="31.581737" lon="-97.156749">
        <ele>144.835458</ele>
        <time>2025-06-07T08:18:45.000Z</time>
      </trkpt>
      <trkpt lat="31.581819" lon="-97.156605">
        <ele>145.073385</ele>
        <time>2025-06-07T08:18:47.000Z</time>
      </trkpt>
      <trkpt lat="31.581943" lon="-97.156542">
        <ele>145.296029</ele>
        <time>2025-06-07T08:18:49.000Z</time>
      </trkpt>
      <trkpt lat="31.58213" lon="-97.156534">
        <ele>145.593453</ele>
        <time>2025-06-07T08:18:51.000Z</time>
      </trkpt>
      <trkpt lat="31.582325" lon="-97.156418">
        <ele>145.956211</ele>
        <time>2025-06-07T08:18:53.000Z</time>
      </trkpt>
      <trkpt lat="31.582403" lon="-97.156342">
        <ele>146.069455</ele>
        <time>2025-06-07T08:18:54.000Z</time>
      </trkpt>
      <trkpt lat="31.58244" lon="-97.156346">
        <ele>146.119513</ele>
        <time>2025-06-07T08:18:54.000Z</time>
      </trkpt>
      <trkpt lat="31.582507" lon="-97.156499">
        <ele>146.287442</ele>
        <time>2025-06-07T08:18:56.000Z</time>
      </trkpt>
      <trkpt lat="31.582602" lon="-97.156562">
        <ele>146.403602</ele>
        <time>2025-06-07T08:18:57.000Z</time>
      </trkpt>
      <trkpt lat="31.58276" lon="-97.156542">
        <ele>146.577944</ele>
        <time>2025-06-07T08:18:59.000Z</time>
      </trkpt>
      <trkpt lat="31.582818" lon="-97.156521">
        <ele>146.645945</ele>
        <time>2025-06-07T08:19:00.000Z</time>
      </trkpt>
      <trkpt lat="31.582845" lon="-97.156452">
        <ele>146.715408</ele>
        <time>2025-06-07T08:19:01.000Z</time>
      </trkpt>
      <trkpt lat="31.582842" lon="-97.156364">
        <ele>146.788667</ele>
        <time>2025-06-07T08:19:02.000Z</time>
      </trkpt>
      <trkpt lat="31.58282" lon="-97.156282">
        <ele>146.862683</ele>
        <time>2025-06-07T08:19:03.000Z</time>
      </trkpt>
      <trkpt lat="31.582785" lon="-97.156177">
        <ele>146.967042</ele>
        <time>2025-06-07T08:19:04.000Z</time>
      </trkpt>
      <trkpt lat="31.582751" lon="-97.15587">
        <ele>147.25515</ele>
        <time>2025-06-07T08:19:07.000Z</time>
      </trkpt>
      <trkpt lat="31.582822" lon="-97.155892">
        <ele>147.319091</ele>
        <time>2025-06-07T08:19:08.000Z</time>
      </trkpt>
      <trkpt lat="31.582895" lon="-97.155822">
        <ele>147.421695</ele>
        <time>2025-06-07T08:19:09.000Z</time>
      </trkpt>
      <trkpt lat="31.583045" lon="-97.155826">
        <ele>147.588103</ele>
        <time>2025-06-07T08:19:11.000Z</time>
      </trkpt>
      <trkpt lat="31.583159" lon="-97.156089">
        <ele>147.871735</ele>
        <time>2025-06-07T08:19:14.000Z</time>
      </trkpt>
      <trkpt lat="31.583246" lon="-97.156445">
        <ele>147.495012</ele>
        <time>2025-06-07T08:19:18.000Z</time>
      </trkpt>
      <trkpt lat="31.583139" lon="-97.15665">
        <ele>147.185916</ele>
        <time>2025-06-07T08:19:20.000Z</time>
      </trkpt>
      <trkpt lat="31.583397" lon="-97.156745">
        <ele>146.797173</ele>
        <time>2025-06-07T08:19:23.000Z</time>
      </trkpt>
      <trkpt lat="31.583378" lon="-97.157169">
        <ele>146.287365</ele>
        <time>2025-06-07T08:19:27.000Z</time>
      </trkpt>
      <trkpt lat="31.583412" lon="-97.157412">
        <ele>145.975844</ele>
        <time>2025-06-07T08:19:29.000Z</time>
      </trkpt>
      <trkpt lat="31.583801" lon="-97.158184">
        <ele>143.906869</ele>
        <time>2025-06-07T08:19:37.000Z</time>
      </trkpt>
      <trkpt lat="31.58393" lon="-97.1581">
        <ele>143.28145</ele>
        <time>2025-06-07T08:19:39.000Z</time>
      </trkpt>
      <trkpt lat="31.583962" lon="-97.158164">
        <ele>142.963933</ele>
        <time>2025-06-07T08:19:40.000Z</time>
      </trkpt>
      <trkpt lat="31.584092" lon="-97.15826">
        <ele>142.366428</ele>
        <time>2025-06-07T08:19:42.000Z</time>
      </trkpt>
      <trkpt lat="31.584121" lon="-97.158282">
        <ele>142.186091</ele>
        <time>2025-06-07T08:19:42.000Z</time>
      </trkpt>
      <trkpt lat="31.58417" lon="-97.158393">
        <ele>141.74851</ele>
        <time>2025-06-07T08:19:43.000Z</time>
      </trkpt>
      <trkpt lat="31.584183" lon="-97.158429">
        <ele>141.586693</ele>
        <time>2025-06-07T08:19:43.000Z</time>
      </trkpt>
      <trkpt lat="31.584209" lon="-97.158447">
        <ele>141.449781</ele>
        <time>2025-06-07T08:19:43.000Z</time>
      </trkpt>
      <trkpt lat="31.584337" lon="-97.158471">
        <ele>140.867837</ele>
        <time>2025-06-07T08:19:44.000Z</time>
      </trkpt>
      <trkpt lat="31.584398" lon="-97.158454">
        <ele>140.630545</ele>
        <time>2025-06-07T08:19:45.000Z</time>
      </trkpt>
      <trkpt lat="31.584498" lon="-97.158429">
        <ele>140.146946</ele>
        <time>2025-06-07T08:19:46.000Z</time>
      </trkpt>
      <trkpt lat="31.584556" lon="-97.158461">
        <ele>139.864966</ele>
        <time>2025-06-07T08:19:47.000Z</time>
      </trkpt>
      <trkpt lat="31.584607" lon="-97.158465">
        <ele>139.661876</ele>
        <time>2025-06-07T08:19:48.000Z</time>
      </trkpt>
      <trkpt lat="31.58463" lon="-97.158458">
        <ele>139.526459</ele>
        <time>2025-06-07T08:19:48.000Z</time>
      </trkpt>
      <trkpt lat="31.584641" lon="-97.158464">
        <ele>139.423023</ele>
        <time>2025-06-07T08:19:48.000Z</time>
      </trkpt>
      <trkpt lat="31.584674" lon="-97.158477">
        <ele>139.283571</ele>
        <time>2025-06-07T08:19:48.000Z</time>
      </trkpt>
      <trkpt lat="31.584709" lon="-97.158486">
        <ele>139.158469</ele>
        <time>2025-06-07T08:19:48.000Z</time>
      </trkpt>
      <trkpt lat="31.58471" lon="-97.158506">
        <ele>139.054499</ele>
        <time>2025-06-07T08:19:48.000Z</time>
      </trkpt>
      <trkpt lat="31.584733" lon="-97.15851">
        <ele>138.987329</ele>
        <time>2025-06-07T08:19:48.000Z</time>
      </trkpt>
      <trkpt lat="31.584797" lon="-97.158463">
        <ele>138.662698</ele>
        <time>2025-06-07T08:19:49.000Z</time>
      </trkpt>
      <trkpt lat="31.584867" lon="-97.15838">
        <ele>138.201368</ele>
        <time>2025-06-07T08:19:50.000Z</time>
      </trkpt>
      <trkpt lat="31.58494" lon="-97.158291">
        <ele>137.759118</ele>
        <time>2025-06-07T08:19:51.000Z</time>
      </trkpt>
      <trkpt lat="31.584999" lon="-97.158211">
        <ele>137.357999</ele>
        <time>2025-06-07T08:19:52.000Z</time>
      </trkpt>
      <trkpt lat="31.585032" lon="-97.158182">
        <ele>137.215865</ele>
        <time>2025-06-07T08:19:52.000Z</time>
      </trkpt>
      <trkpt lat="31.585062" lon="-97.158155">
        <ele>137.098587</ele>
        <time>2025-06-07T08:19:52.000Z</time>
      </trkpt>
      <trkpt lat="31.585083" lon="-97.158129">
        <ele>137.013812</ele>
        <time>2025-06-07T08:19:52.000Z</time>
      </trkpt>
      <trkpt lat="31.585158" lon="-97.158062">
        <ele>136.71661</ele>
        <time>2025-06-07T08:19:53.000Z</time>
      </trkpt>
      <trkpt lat="31.585388" lon="-97.157946">
        <ele>135.974141</ele>
        <time>2025-06-07T08:19:56.000Z</time>
      </trkpt>
      <trkpt lat="31.585432" lon="-97.157883">
        <ele>135.768517</ele>
        <time>2025-06-07T08:19:57.000Z</time>
      </trkpt>
      <trkpt lat="31.585455" lon="-97.157846">
        <ele>135.663774</ele>
        <time>2025-06-07T08:19:57.000Z</time>
      </trkpt>
      <trkpt lat="31.585585" lon="-97.157723">
        <ele>135.164648</ele>
        <time>2025-06-07T08:19:59.000Z</time>
      </trkpt>
      <trkpt lat="31.585606" lon="-97.157693">
        <ele>135.041567</ele>
        <time>2025-06-07T08:19:59.000Z</time>
      </trkpt>
      <trkpt lat="31.585732" lon="-97.157865">
        <ele>134.454386</ele>
        <time>2025-06-07T08:20:01.000Z</time>
      </trkpt>
      <trkpt lat="31.585755" lon="-97.157838">
        <ele>134.38286</ele>
        <time>2025-06-07T08:20:01.000Z</time>
      </trkpt>
      <trkpt lat="31.586147" lon="-97.157555">
        <ele>132.978483</ele>
        <time>2025-06-07T08:20:06.000Z</time>
      </trkpt>
      <trkpt lat="31.586175" lon="-97.157434">
        <ele>132.653669</ele>
        <time>2025-06-07T08:20:07.000Z</time>
      </trkpt>
      <trkpt lat="31.586528" lon="-97.156986">
        <ele>132.805979</ele>
        <time>2025-06-07T08:20:13.000Z</time>
      </trkpt>
      <trkpt lat="31.58642" lon="-97.156749">
        <ele>133.630746</ele>
        <time>2025-06-07T08:20:16.000Z</time>
      </trkpt>
      <trkpt lat="31.586406" lon="-97.15654">
        <ele>134.254816</ele>
        <time>2025-06-07T08:20:18.000Z</time>
      </trkpt>
      <trkpt lat="31.586254" lon="-97.156457">
        <ele>134.85378</ele>
        <time>2025-06-07T08:20:20.000Z</time>
      </trkpt>
      <trkpt lat="31.586198" lon="-97.156481">
        <ele>135.079196</ele>
        <time>2025-06-07T08:20:21.000Z</time>
      </trkpt>
      <trkpt lat="31.586072" lon="-97.156752">
        <ele>136.021804</ele>
        <time>2025-06-07T08:20:24.000Z</time>
      </trkpt>
      <trkpt lat="31.585981" lon="-97.156833">
        <ele>136.469304</ele>
        <time>2025-06-07T08:20:25.000Z</time>
      </trkpt>
      <trkpt lat="31.585669" lon="-97.156931">
        <ele>137.612709</ele>
        <time>2025-06-07T08:20:29.000Z</time>
      </trkpt>
      <trkpt lat="31.585437" lon="-97.156927">
        <ele>138.419282</ele>
        <time>2025-06-07T08:20:32.000Z</time>
      </trkpt>
      <trkpt lat="31.584958" lon="-97.157055">
        <ele>139.727247</ele>
        <time>2025-06-07T08:20:37.000Z</time>
      </trkpt>
      <trkpt lat="31.58482" lon="-97.157242">
        <ele>140.257867</ele>
        <time>2025-06-07T08:20:39.000Z</time>
      </trkpt>
      <trkpt lat="31.584676" lon="-97.157522">
        <ele>140.986768</ele>
        <time>2025-06-07T08:20:42.000Z</time>
      </trkpt>
      <trkpt lat="31.584604" lon="-97.157711">
        <ele>141.425615</ele>
        <time>2025-06-07T08:20:44.000Z</time>
      </trkpt>
      <trkpt lat="31.584619" lon="-97.157737">
        <ele>141.507045</ele>
        <time>2025-06-07T08:20:44.000Z</time>
      </trkpt>
      <trkpt lat="31.584723" lon="-97.157759">
        <ele>141.764121</ele>
        <time>2025-06-07T08:20:45.000Z</time>
      </trkpt>
      <trkpt lat="31.58466" lon="-97.157985">
        <ele>142.249369</ele>
        <time>2025-06-07T08:20:47.000Z</time>
      </trkpt>
      <trkpt lat="31.584604" lon="-97.158103">
        <ele>142.567046</ele>
        <time>2025-06-07T08:20:48.000Z</time>
      </trkpt>
      <trkpt lat="31.584569" lon="-97.15806">
        <ele>142.690053</ele>
        <time>2025-06-07T08:20:49.000Z</time>
      </trkpt>
      <trkpt lat="31.584517" lon="-97.157937">
        <ele>143.001688</ele>
        <time>2025-06-07T08:20:50.000Z</time>
      </trkpt>
      <trkpt lat="31.584458" lon="-97.158056">
        <ele>143.174333</ele>
        <time>2025-06-07T08:20:51.000Z</time>
      </trkpt>
      <trkpt lat="31.584458" lon="-97.158081">
        <ele>143.196335</ele>
        <time>2025-06-07T08:20:51.000Z</time>
      </trkpt>
      <trkpt lat="31.584455" lon="-97.158295">
        <ele>143.431966</ele>
        <time>2025-06-07T08:20:53.000Z</time>
      </trkpt>
      <trkpt lat="31.5843" lon="-97.158365">
        <ele>143.623385</ele>
        <time>2025-06-07T08:20:55.000Z</time>
      </trkpt>
      <trkpt lat="31.584226" lon="-97.158362">
        <ele>143.710786</ele>
        <time>2025-06-07T08:20:56.000Z</time>
      </trkpt>
      <trkpt lat="31.584231" lon="-97.15832">
        <ele>143.756755</ele>
        <time>2025-06-07T08:20:56.000Z</time>
      </trkpt>
      <trkpt lat="31.584332" lon="-97.158208">
        <ele>143.945303</ele>
        <time>2025-06-07T08:20:58.000Z</time>
      </trkpt>
      <trkpt lat="31.584229" lon="-97.15807">
        <ele>144.130352</ele>
        <time>2025-06-07T08:21:00.000Z</time>
      </trkpt>
      <trkpt lat="31.58424" lon="-97.158023">
        <ele>144.176698</ele>
        <time>2025-06-07T08:21:00.000Z</time>
      </trkpt>
      <trkpt lat="31.584354" lon="-97.157975">
        <ele>144.331225</ele>
        <time>2025-06-07T08:21:01.000Z</time>
      </trkpt>
      <trkpt lat="31.584365" lon="-97.157826">
        <ele>144.479145</ele>
        <time>2025-06-07T08:21:02.000Z</time>
      </trkpt>
      <trkpt lat="31.584331" lon="-97.1578">
        <ele>144.533973</ele>
        <time>2025-06-07T08:21:02.000Z</time>
      </trkpt>
      <trkpt lat="31.584237" lon="-97.1579">
        <ele>144.696972</ele>
        <time>2025-06-07T08:21:03.000Z</time>
      </trkpt>
      <trkpt lat="31.584163" lon="-97.15788">
        <ele>144.790464</ele>
        <time>2025-06-07T08:21:04.000Z</time>
      </trkpt>
      <trkpt lat="31.5841" lon="-97.158106">
        <ele>145.051306</ele>
        <time>2025-06-07T08:21:06.000Z</time>
      </trkpt>
      <trkpt lat="31.584046" lon="-97.158113">
        <ele>145.104213</ele>
        <time>2025-06-07T08:21:07.000Z</time>
      </trkpt>
      <trkpt lat="31.58403" lon="-97.15804">
        <ele>145.187126</ele>
        <time>2025-06-07T08:21:08.000Z</time>
      </trkpt>
      <trkpt lat="31.58402" lon="-97.158002">
        <ele>145.241745</ele>
        <time>2025-06-07T08:21:08.000Z</time>
      </trkpt>
      <trkpt lat="31.584042" lon="-97.157782">
        <ele>145.303243</ele>
        <time>2025-06-07T08:21:10.000Z</time>
      </trkpt>
      <trkpt lat="31.583953" lon="-97.157735">
        <ele>145.326687</ele>
        <time>2025-06-07T08:21:11.000Z</time>
      </trkpt>
      <trkpt lat="31.583916" lon="-97.157651">
        <ele>145.347419</ele>
        <time>2025-06-07T08:21:12.000Z</time>
      </trkpt>
      <trkpt lat="31.583863" lon="-97.157407">
        <ele>145.403592</ele>
        <time>2025-06-07T08:21:14.000Z</time>
      </trkpt>
      <trkpt lat="31.583727" lon="-97.157283">
        <ele>145.445673</ele>
        <time>2025-06-07T08:21:16.000Z</time>
      </trkpt>
      <trkpt lat="31.583721" lon="-97.157221">
        <ele>145.459772</ele>
        <time>2025-06-07T08:21:17.000Z</time>
      </trkpt>
      <trkpt lat="31.583729" lon="-97.157203">
        <ele>145.467293</ele>
        <time>2025-06-07T08:21:17.000Z</time>
      </trkpt>
      <trkpt lat="31.583762" lon="-97.157193">
        <ele>145.47566</ele>
        <time>2025-06-07T08:21:17.000Z</time>
      </trkpt>
      <trkpt lat="31.583978" lon="-97.157375">
        <ele>145.541736</ele>
        <time>2025-06-07T08:21:20.000Z</time>
      </trkpt>
      <trkpt lat="31.584064" lon="-97.157346">
        <ele>145.562306</ele>
        <time>2025-06-07T08:21:21.000Z</time>
      </trkpt>
      <trkpt lat="31.584217" lon="-97.157439">
        <ele>145.606218</ele>
        <time>2025-06-07T08:21:23.000Z</time>
      </trkpt>
      <trkpt lat="31.584258" lon="-97.157522">
        <ele>145.624192</ele>
        <time>2025-06-07T08:21:24.000Z</time>
      </trkpt>
      <trkpt lat="31.584331" lon="-97.157572">
        <ele>145.646653</ele>
        <time>2025-06-07T08:21:25.000Z</time>
      </trkpt>
      <trkpt lat="31.584374" lon="-97.157657">
        <ele>145.665935</ele>
        <time>2025-06-07T08:21:26.000Z</time>
      </trkpt>
      <trkpt lat="31.584472" lon="-97.157613">
        <ele>145.691312</ele>
        <time>2025-06-07T08:21:27.000Z</time>
      </trkpt>
      <trkpt lat="31.584483" lon="-97.157557">
        <ele>145.702878</ele>
        <time>2025-06-07T08:21:28.000Z</time>
      </trkpt>
      <trkpt lat="31.584339" lon="-97.157289">
        <ele>144.906053</ele>
        <time>2025-06-07T08:21:31.000Z</time>
      </trkpt>
      <trkpt lat="31.584458" lon="-97.157136">
        <ele>144.337675</ele>
        <time>2025-06-07T08:21:33.000Z</time>
      </trkpt>
      <trkpt lat="31.584604" lon="-97.15702">
        <ele>143.716354</ele>
        <time>2025-06-07T08:21:35.000Z</time>
      </trkpt>
      <trkpt lat="31.584786" lon="-97.156957">
        <ele>143.068258</ele>
        <time>2025-06-07T08:21:37.000Z</time>
      </trkpt>
      <trkpt lat="31.584955" lon="-97.157051">
        <ele>142.430904</ele>
        <time>2025-06-07T08:21:39.000Z</time>
      </trkpt>
      <trkpt lat="31.5849" lon="-97.156944">
        <ele>142.079968</ele>
        <time>2025-06-07T08:21:40.000Z</time>
      </trkpt>
      <trkpt lat="31.585087" lon="-97.156555">
        <ele>140.772498</ele>
        <time>2025-06-07T08:21:44.000Z</time>
      </trkpt>
      <trkpt lat="31.585146" lon="-97.156101">
        <ele>139.374438</ele>
        <time>2025-06-07T08:21:48.000Z</time>
      </trkpt>
      <trkpt lat="31.585235" lon="-97.155978">
        <ele>138.775823</ele>
        <time>2025-06-07T08:21:50.000Z</time>
      </trkpt>
      <trkpt lat="31.585292" lon="-97.155968">
        <ele>138.527734</ele>
        <time>2025-06-07T08:21:51.000Z</time>
      </trkpt>
      <trkpt lat="31.585524" lon="-97.156064">
        <ele>137.418385</ele>
        <time>2025-06-07T08:21:54.000Z</time>
      </trkpt>
      <trkpt lat="31.58599" lon="-97.156027">
        <ele>135.345151</ele>
        <time>2025-06-07T08:21:59.000Z</time>
      </trkpt>
      <trkpt lat="31.586098" lon="-97.156058">
        <ele>134.875278</ele>
        <time>2025-06-07T08:22:00.000Z</time>
      </trkpt>
      <trkpt lat="31.586406" lon="-97.156234">
        <ele>133.337074</ele>
        <time>2025-06-07T08:22:04.000Z</time>
      </trkpt>
      <trkpt lat="31.586543" lon="-97.156321">
        <ele>132.676878</ele>
        <time>2025-06-07T08:22:06.000Z</time>
      </trkpt>
      <trkpt lat="31.58671" lon="-97.156474">
        <ele>131.722144</ele>
        <time>2025-06-07T08:22:08.000Z</time>
      </trkpt>
      <trkpt lat="31.586408" lon="-97.156548">
        <ele>132.083615</ele>
        <time>2025-06-07T08:22:11.000Z</time>
      </trkpt>
      <trkpt lat="31.586412" lon="-97.156743">
        <ele>132.476101</ele>
        <time>2025-06-07T08:22:13.000Z</time>
      </trkpt>
      <trkpt lat="31.586523" lon="-97.156983">
        <ele>132.994825</ele>
        <time>2025-06-07T08:22:16.000Z</time>
      </trkpt>
      <trkpt lat="31.586171" lon="-97.157431">
        <ele>134.16759</ele>
        <time>2025-06-07T08:22:22.000Z</time>
      </trkpt>
      <trkpt lat="31.586144" lon="-97.157542">
        <ele>134.410766</ele>
        <time>2025-06-07T08:22:23.000Z</time>
      </trkpt>
      <trkpt lat="31.58617" lon="-97.157667">
        <ele>134.676381</ele>
        <time>2025-06-07T08:22:24.000Z</time>
      </trkpt>
      <trkpt lat="31.586103" lon="-97.1578">
        <ele>134.976447</ele>
        <time>2025-06-07T08:22:25.000Z</time>
      </trkpt>
      <trkpt lat="31.586131" lon="-97.158064">
        <ele>135.499802</ele>
        <time>2025-06-07T08:22:28.000Z</time>
      </trkpt>
      <trkpt lat="31.586137" lon="-97.158237">
        <ele>136.273923</ele>
        <time>2025-06-07T08:22:30.000Z</time>
      </trkpt>
      <trkpt lat="31.586419" lon="-97.158736">
        <ele>139.677401</ele>
        <time>2025-06-07T08:22:36.000Z</time>
      </trkpt>
      <trkpt lat="31.586441" lon="-97.158871">
        <ele>140.443405</ele>
        <time>2025-06-07T08:22:37.000Z</time>
      </trkpt>
      <trkpt lat="31.586426" lon="-97.158984">
        <ele>141.153133</ele>
        <time>2025-06-07T08:22:38.000Z</time>
      </trkpt>
      <trkpt lat="31.586107" lon="-97.159276">
        <ele>143.772381</ele>
        <time>2025-06-07T08:22:43.000Z</time>
      </trkpt>
      <trkpt lat="31.586049" lon="-97.15933">
        <ele>144.23615</ele>
        <time>2025-06-07T08:22:44.000Z</time>
      </trkpt>
      <trkpt lat="31.58598" lon="-97.159455">
        <ele>145.051125</ele>
        <time>2025-06-07T08:22:45.000Z</time>
      </trkpt>
      <trkpt lat="31.585776" lon="-97.159909">
        <ele>147.709452</ele>
        <time>2025-06-07T08:22:50.000Z</time>
      </trkpt>
      <trkpt lat="31.585581" lon="-97.159889">
        <ele>147.951701</ele>
        <time>2025-06-07T08:22:52.000Z</time>
      </trkpt>
      <trkpt lat="31.585785" lon="-97.159908">
        <ele>148.193932</ele>
        <time>2025-06-07T08:22:54.000Z</time>
      </trkpt>
      <trkpt lat="31.585869" lon="-97.159964">
        <ele>148.306863</ele>
        <time>2025-06-07T08:22:55.000Z</time>
      </trkpt>
      <trkpt lat="31.585913" lon="-97.160047">
        <ele>148.402196</ele>
        <time>2025-06-07T08:22:56.000Z</time>
      </trkpt>
      <trkpt lat="31.586016" lon="-97.160221">
        <ele>148.6347</ele>
        <time>2025-06-07T08:22:58.000Z</time>
      </trkpt>
      <trkpt lat="31.58611" lon="-97.160153">
        <ele>148.766564</ele>
        <time>2025-06-07T08:22:59.000Z</time>
      </trkpt>
      <trkpt lat="31.586171" lon="-97.160151">
        <ele>148.853522</ele>
        <time>2025-06-07T08:23:00.000Z</time>
      </trkpt>
      <trkpt lat="31.586534" lon="-97.160256">
        <ele>149.308283</ele>
        <time>2025-06-07T08:23:04.000Z</time>
      </trkpt>
      <trkpt lat="31.586594" lon="-97.160231">
        <ele>149.397769</ele>
        <time>2025-06-07T08:23:05.000Z</time>
      </trkpt>
      <trkpt lat="31.586843" lon="-97.159977">
        <ele>149.796198</ele>
        <time>2025-06-07T08:23:09.000Z</time>
      </trkpt>
      <trkpt lat="31.586986" lon="-97.159914">
        <ele>149.575548</ele>
        <time>2025-06-07T08:23:11.000Z</time>
      </trkpt>
      <trkpt lat="31.587038" lon="-97.159864">
        <ele>149.374128</ele>
        <time>2025-06-07T08:23:12.000Z</time>
      </trkpt>
      <trkpt lat="31.587218" lon="-97.159826">
        <ele>148.937769</ele>
        <time>2025-06-07T08:23:14.000Z</time>
      </trkpt>
      <trkpt lat="31.587459" lon="-97.15991">
        <ele>148.314821</ele>
        <time>2025-06-07T08:23:17.000Z</time>
      </trkpt>
      <trkpt lat="31.587548" lon="-97.159912">
        <ele>148.097147</ele>
        <time>2025-06-07T08:23:18.000Z</time>
      </trkpt>
      <trkpt lat="31.587771" lon="-97.159741">
        <ele>147.415396</ele>
        <time>2025-06-07T08:23:21.000Z</time>
      </trkpt>
      <trkpt lat="31.587882" lon="-97.159721">
        <ele>147.151251</ele>
        <time>2025-06-07T08:23:22.000Z</time>
      </trkpt>
      <trkpt lat="31.588025" lon="-97.159771">
        <ele>146.760214</ele>
        <time>2025-06-07T08:23:24.000Z</time>
      </trkpt>
      <trkpt lat="31.58814" lon="-97.159889">
        <ele>146.373209</ele>
        <time>2025-06-07T08:23:26.000Z</time>
      </trkpt>
      <trkpt lat="31.588349" lon="-97.159973">
        <ele>145.796862</ele>
        <time>2025-06-07T08:23:28.000Z</time>
      </trkpt>
      <trkpt lat="31.588468" lon="-97.160237">
        <ele>145.328219</ele>
        <time>2025-06-07T08:23:31.000Z</time>
      </trkpt>
      <trkpt lat="31.588657" lon="-97.160427">
        <ele>145.38192</ele>
        <time>2025-06-07T08:23:34.000Z</time>
      </trkpt>
      <trkpt lat="31.588612" lon="-97.160558">
        <ele>145.408043</ele>
        <time>2025-06-07T08:23:35.000Z</time>
      </trkpt>
      <trkpt lat="31.588428" lon="-97.160785">
        <ele>145.462772</ele>
        <time>2025-06-07T08:23:38.000Z</time>
      </trkpt>
      <trkpt lat="31.588385" lon="-97.160766">
        <ele>145.470559</ele>
        <time>2025-06-07T08:23:39.000Z</time>
      </trkpt>
      <trkpt lat="31.588354" lon="-97.160578">
        <ele>145.504964</ele>
        <time>2025-06-07T08:23:41.000Z</time>
      </trkpt>
      <trkpt lat="31.588246" lon="-97.160691">
        <ele>145.535908</ele>
        <time>2025-06-07T08:23:43.000Z</time>
      </trkpt>
      <trkpt lat="31.588114" lon="-97.160738">
        <ele>145.564043</ele>
        <time>2025-06-07T08:23:45.000Z</time>
      </trkpt>
      <trkpt lat="31.588038" lon="-97.160731">
        <ele>145.578365</ele>
        <time>2025-06-07T08:23:46.000Z</time>
      </trkpt>
      <trkpt lat="31.587992" lon="-97.160671">
        <ele>145.595543</ele>
        <time>2025-06-07T08:23:47.000Z</time>
      </trkpt>
      <trkpt lat="31.588001" lon="-97.16054">
        <ele>145.616638</ele>
        <time>2025-06-07T08:23:48.000Z</time>
      </trkpt>
      <trkpt lat="31.588153" lon="-97.16038">
        <ele>145.658917</ele>
        <time>2025-06-07T08:23:50.000Z</time>
      </trkpt>
      <trkpt lat="31.58817" lon="-97.160275">
        <ele>145.679439</ele>
        <time>2025-06-07T08:23:51.000Z</time>
      </trkpt>
      <trkpt lat="31.588139" lon="-97.160187">
        <ele>145.69766</ele>
        <time>2025-06-07T08:23:52.000Z</time>
      </trkpt>
      <trkpt lat="31.588068" lon="-97.160176">
        <ele>145.776283</ele>
        <time>2025-06-07T08:23:53.000Z</time>
      </trkpt>
      <trkpt lat="31.587869" lon="-97.1603">
        <ele>146.001272</ele>
        <time>2025-06-07T08:23:56.000Z</time>
      </trkpt>
      <trkpt lat="31.587802" lon="-97.160337">
        <ele>146.086122</ele>
        <time>2025-06-07T08:23:57.000Z</time>
      </trkpt>
      <trkpt lat="31.587731" lon="-97.160376">
        <ele>146.173261</ele>
        <time>2025-06-07T08:23:58.000Z</time>
      </trkpt>
      <trkpt lat="31.587617" lon="-97.160382">
        <ele>146.285945</ele>
        <time>2025-06-07T08:23:59.000Z</time>
      </trkpt>
      <trkpt lat="31.587578" lon="-97.160405">
        <ele>146.333209</ele>
        <time>2025-06-07T08:23:59.000Z</time>
      </trkpt>
      <trkpt lat="31.587547" lon="-97.160572">
        <ele>146.477752</ele>
        <time>2025-06-07T08:24:01.000Z</time>
      </trkpt>
      <trkpt lat="31.587519" lon="-97.160635">
        <ele>146.540999</ele>
        <time>2025-06-07T08:24:02.000Z</time>
      </trkpt>
      <trkpt lat="31.587459" lon="-97.160651">
        <ele>146.610198</ele>
        <time>2025-06-07T08:24:03.000Z</time>
      </trkpt>
      <trkpt lat="31.587408" lon="-97.160612">
        <ele>146.676171</ele>
        <time>2025-06-07T08:24:04.000Z</time>
      </trkpt>
      <trkpt lat="31.587367" lon="-97.160518">
        <ele>146.748012</ele>
        <time>2025-06-07T08:24:05.000Z</time>
      </trkpt>
      <trkpt lat="31.587345" lon="-97.160229">
        <ele>147.011903</ele>
        <time>2025-06-07T08:24:08.000Z</time>
      </trkpt>
      <trkpt lat="31.587283" lon="-97.160162">
        <ele>147.099574</ele>
        <time>2025-06-07T08:24:09.000Z</time>
      </trkpt>
      <trkpt lat="31.58721" lon="-97.160159">
        <ele>147.177498</ele>
        <time>2025-06-07T08:24:10.000Z</time>
      </trkpt>
      <trkpt lat="31.586931" lon="-97.160255">
        <ele>147.469861</ele>
        <time>2025-06-07T08:24:13.000Z</time>
      </trkpt>
      <trkpt lat="31.586755" lon="-97.160477">
        <ele>146.340279</ele>
        <time>2025-06-07T08:24:16.000Z</time>
      </trkpt>
      <trkpt lat="31.586677" lon="-97.16051">
        <ele>145.879351</ele>
        <time>2025-06-07T08:24:17.000Z</time>
      </trkpt>
      <trkpt lat="31.586948" lon="-97.160814">
        <ele>143.660209</ele>
        <time>2025-06-07T08:24:21.000Z</time>
      </trkpt>
      <trkpt lat="31.586972" lon="-97.160891">
        <ele>143.195015</ele>
        <time>2025-06-07T08:24:22.000Z</time>
      </trkpt>
      <trkpt lat="31.587031" lon="-97.161214">
        <ele>141.432805</ele>
        <time>2025-06-07T08:24:25.000Z</time>
      </trkpt>
      <trkpt lat="31.587055" lon="-97.161448">
        <ele>140.224666</ele>
        <time>2025-06-07T08:24:27.000Z</time>
      </trkpt>
      <trkpt lat="31.586846" lon="-97.162203">
        <ele>136.534881</ele>
        <time>2025-06-07T08:24:35.000Z</time>
      </trkpt>
      <trkpt lat="31.586904" lon="-97.162197">
        <ele>136.522504</ele>
        <time>2025-06-07T08:24:36.000Z</time>
      </trkpt>
      <trkpt lat="31.587095" lon="-97.162338">
        <ele>136.468538</ele>
        <time>2025-06-07T08:24:39.000Z</time>
      </trkpt>
      <trkpt lat="31.587249" lon="-97.162354">
        <ele>136.43274</ele>
        <time>2025-06-07T08:24:41.000Z</time>
      </trkpt>
      <trkpt lat="31.587173" lon="-97.162475">
        <ele>136.40376</ele>
        <time>2025-06-07T08:24:42.000Z</time>
      </trkpt>
      <trkpt lat="31.587128" lon="-97.162513">
        <ele>136.388302</ele>
        <time>2025-06-07T08:24:43.000Z</time>
      </trkpt>
      <trkpt lat="31.586779" lon="-97.162523">
        <ele>136.305535</ele>
        <time>2025-06-07T08:24:47.000Z</time>
      </trkpt>
      <trkpt lat="31.58658" lon="-97.162698">
        <ele>136.249991</ele>
        <time>2025-06-07T08:24:50.000Z</time>
      </trkpt>
      <trkpt lat="31.58641" lon="-97.162783">
        <ele>136.207582</ele>
        <time>2025-06-07T08:24:52.000Z</time>
      </trkpt>
      <trkpt lat="31.586186" lon="-97.16313">
        <ele>136.272858</ele>
        <time>2025-06-07T08:24:56.000Z</time>
      </trkpt>
      <trkpt lat="31.58602" lon="-97.163321">
        <ele>137.230104</ele>
        <time>2025-06-07T08:24:59.000Z</time>
      </trkpt>
      <trkpt lat="31.585994" lon="-97.163389">
        <ele>137.504366</ele>
        <time>2025-06-07T08:25:00.000Z</time>
      </trkpt>
      <trkpt lat="31.58601" lon="-97.16371">
        <ele>138.660995</ele>
        <time>2025-06-07T08:25:03.000Z</time>
      </trkpt>
      <trkpt lat="31.585905" lon="-97.163974">
        <ele>139.68577</ele>
        <time>2025-06-07T08:25:06.000Z</time>
      </trkpt>
      <trkpt lat="31.585913" lon="-97.164082">
        <ele>140.122573</ele>
        <time>2025-06-07T08:25:07.000Z</time>
      </trkpt>
      <trkpt lat="31.585865" lon="-97.164215">
        <ele>140.636477</ele>
        <time>2025-06-07T08:25:08.000Z</time>
      </trkpt>
      <trkpt lat="31.585559" lon="-97.164785">
        <ele>143.037218</ele>
        <time>2025-06-07T08:25:14.000Z</time>
      </trkpt>
      <trkpt lat="31.585508" lon="-97.164819">
        <ele>143.298621</ele>
        <time>2025-06-07T08:25:15.000Z</time>
      </trkpt>
      <trkpt lat="31.585365" lon="-97.164773">
        <ele>143.80813</ele>
        <time>2025-06-07T08:25:17.000Z</time>
      </trkpt>
      <trkpt lat="31.585274" lon="-97.164614">
        <ele>144.189338</ele>
        <time>2025-06-07T08:25:19.000Z</time>
      </trkpt>
      <trkpt lat="31.585209" lon="-97.164546">
        <ele>144.371682</ele>
        <time>2025-06-07T08:25:20.000Z</time>
      </trkpt>
      <trkpt lat="31.585115" lon="-97.164532">
        <ele>144.589046</ele>
        <time>2025-06-07T08:25:21.000Z</time>
      </trkpt>
      <trkpt lat="31.584865" lon="-97.164661">
        <ele>145.179482</ele>
        <time>2025-06-07T08:25:24.000Z</time>
      </trkpt>
      <trkpt lat="31.584763" lon="-97.164764">
        <ele>145.476087</ele>
        <time>2025-06-07T08:25:25.000Z</time>
      </trkpt>
      <trkpt lat="31.584773" lon="-97.164795">
        <ele>145.54092</ele>
        <time>2025-06-07T08:25:25.000Z</time>
      </trkpt>
      <trkpt lat="31.584774" lon="-97.164816">
        <ele>145.571589</ele>
        <time>2025-06-07T08:25:25.000Z</time>
      </trkpt>
      <trkpt lat="31.584885" lon="-97.164859">
        <ele>145.839035</ele>
        <time>2025-06-07T08:25:26.000Z</time>
      </trkpt>
      <trkpt lat="31.584922" lon="-97.164918">
        <ele>145.986983</ele>
        <time>2025-06-07T08:25:27.000Z</time>
      </trkpt>
      <trkpt lat="31.584906" lon="-97.164998">
        <ele>146.123359</ele>
        <time>2025-06-07T08:25:28.000Z</time>
      </trkpt>
      <trkpt lat="31.584875" lon="-97.165026">
        <ele>146.222126</ele>
        <time>2025-06-07T08:25:28.000Z</time>
      </trkpt>
      <trkpt lat="31.58481" lon="-97.165036">
        <ele>146.362834</ele>
        <time>2025-06-07T08:25:29.000Z</time>
      </trkpt>
      <trkpt lat="31.584583" lon="-97.164959">
        <ele>146.855911</ele>
        <time>2025-06-07T08:25:32.000Z</time>
      </trkpt>
      <trkpt lat="31.584494" lon="-97.165003">
        <ele>147.086675</ele>
        <time>2025-06-07T08:25:33.000Z</time>
      </trkpt>
      <trkpt lat="31.584437" lon="-97.165035">
        <ele>147.211612</ele>
        <time>2025-06-07T08:25:34.000Z</time>
      </trkpt>
      <trkpt lat="31.584361" lon="-97.165174">
        <ele>147.543339</ele>
        <time>2025-06-07T08:25:36.000Z</time>
      </trkpt>
      <trkpt lat="31.584385" lon="-97.165288">
        <ele>147.723095</ele>
        <time>2025-06-07T08:25:37.000Z</time>
      </trkpt>
      <trkpt lat="31.584497" lon="-97.165382">
        <ele>147.521274</ele>
        <time>2025-06-07T08:25:39.000Z</time>
      </trkpt>
      <trkpt lat="31.58472" lon="-97.165346">
        <ele>147.188444</ele>
        <time>2025-06-07T08:25:42.000Z</time>
      </trkpt>
      <trkpt lat="31.584781" lon="-97.165293">
        <ele>147.081826</ele>
        <time>2025-06-07T08:25:43.000Z</time>
      </trkpt>
      <trkpt lat="31.584887" lon="-97.165319">
        <ele>146.927677</ele>
        <time>2025-06-07T08:25:44.000Z</time>
      </trkpt>
      <trkpt lat="31.584983" lon="-97.165256">
        <ele>146.762994</ele>
        <time>2025-06-07T08:25:45.000Z</time>
      </trkpt>
      <trkpt lat="31.585034" lon="-97.165137">
        <ele>146.593476</ele>
        <time>2025-06-07T08:25:46.000Z</time>
      </trkpt>
      <trkpt lat="31.585056" lon="-97.165125">
        <ele>146.555681</ele>
        <time>2025-06-07T08:25:46.000Z</time>
      </trkpt>
      <trkpt lat="31.585108" lon="-97.165219">
        <ele>146.41178</ele>
        <time>2025-06-07T08:25:47.000Z</time>
      </trkpt>
      <trkpt lat="31.585138" lon="-97.165354">
        <ele>146.256091</ele>
        <time>2025-06-07T08:25:48.000Z</time>
      </trkpt>
      <trkpt lat="31.58504" lon="-97.165501">
        <ele>146.016999</ele>
        <time>2025-06-07T08:25:50.000Z</time>
      </trkpt>
      <trkpt lat="31.585005" lon="-97.165529">
        <ele>145.953662</ele>
        <time>2025-06-07T08:25:50.000Z</time>
      </trkpt>
      <trkpt lat="31.584977" lon="-97.165531">
        <ele>145.915458</ele>
        <time>2025-06-07T08:25:50.000Z</time>
      </trkpt>
      <trkpt lat="31.584776" lon="-97.165816">
        <ele>145.477769</ele>
        <time>2025-06-07T08:25:54.000Z</time>
      </trkpt>
      <trkpt lat="31.584708" lon="-97.16597">
        <ele>145.263537</ele>
        <time>2025-06-07T08:25:56.000Z</time>
      </trkpt>
      <trkpt lat="31.584648" lon="-97.166028">
        <ele>145.154932</ele>
        <time>2025-06-07T08:25:57.000Z</time>
      </trkpt>
      <trkpt lat="31.58463" lon="-97.16614">
        <ele>145.290924</ele>
        <time>2025-06-07T08:25:58.000Z</time>
      </trkpt>
      <trkpt lat="31.584512" lon="-97.166213">
        <ele>145.504683</ele>
        <time>2025-06-07T08:25:59.000Z</time>
      </trkpt>
      <trkpt lat="31.584447" lon="-97.166321">
        <ele>145.684252</ele>
        <time>2025-06-07T08:26:00.000Z</time>
      </trkpt>
      <trkpt lat="31.58434" lon="-97.166362">
        <ele>145.866322</ele>
        <time>2025-06-07T08:26:01.000Z</time>
      </trkpt>
      <trkpt lat="31.584264" lon="-97.166369">
        <ele>145.994316</ele>
        <time>2025-06-07T08:26:02.000Z</time>
      </trkpt>
      <trkpt lat="31.584189" lon="-97.1663">
        <ele>146.123273</ele>
        <time>2025-06-07T08:26:03.000Z</time>
      </trkpt>
      <trkpt lat="31.584004" lon="-97.166416">
        <ele>146.477742</ele>
        <time>2025-06-07T08:26:05.000Z</time>
      </trkpt>
      <trkpt lat="31.583881" lon="-97.166538">
        <ele>146.723283</ele>
        <time>2025-06-07T08:26:07.000Z</time>
      </trkpt>
      <trkpt lat="31.583826" lon="-97.166554">
        <ele>146.815844</ele>
        <time>2025-06-07T08:26:08.000Z</time>
      </trkpt>
      <trkpt lat="31.58357" lon="-97.166564">
        <ele>147.230408</ele>
        <time>2025-06-07T08:26:11.000Z</time>
      </trkpt>
      <trkpt lat="31.583534" lon="-97.166663">
        <ele>147.379268</ele>
        <time>2025-06-07T08:26:12.000Z</time>
      </trkpt>
      <trkpt lat="31.583529" lon="-97.166809">
        <ele>147.594964</ele>
        <time>2025-06-07T08:26:13.000Z</time>
      </trkpt>
      <trkpt lat="31.583616" lon="-97.166795">
        <ele>147.739084</ele>
        <time>2025-06-07T08:26:14.000Z</time>
      </trkpt>
      <trkpt lat="31.583738" lon="-97.166993">
        <ele>148.076021</ele>
        <time>2025-06-07T08:26:16.000Z</time>
      </trkpt>
      <trkpt lat="31.583725" lon="-97.167032">
        <ele>148.221908</ele>
        <time>2025-06-07T08:26:16.000Z</time>
      </trkpt>
      <trkpt lat="31.583649" lon="-97.167099">
        <ele>148.538343</ele>
        <time>2025-06-07T08:26:17.000Z</time>
      </trkpt>
      <trkpt lat="31.583629" lon="-97.167237">
        <ele>148.941288</ele>
        <time>2025-06-07T08:26:18.000Z</time>
      </trkpt>
      <trkpt lat="31.583606" lon="-97.167262">
        <ele>149.069453</ele>
        <time>2025-06-07T08:26:18.000Z</time>
      </trkpt>
      <trkpt lat="31.583532" lon="-97.167232">
        <ele>149.310826</ele>
        <time>2025-06-07T08:26:19.000Z</time>
      </trkpt>
      <trkpt lat="31.583484" lon="-97.167259">
        <ele>149.464017</ele>
        <time>2025-06-07T08:26:20.000Z</time>
      </trkpt>
      <trkpt lat="31.583418" lon="-97.16728">
        <ele>149.724148</ele>
        <time>2025-06-07T08:26:21.000Z</time>
      </trkpt>
      <trkpt lat="31.583393" lon="-97.167305">
        <ele>149.829134</ele>
        <time>2025-06-07T08:26:21.000Z</time>
      </trkpt>
      <trkpt lat="31.583472" lon="-97.167532">
        <ele>150.486035</ele>
        <time>2025-06-07T08:26:23.000Z</time>
      </trkpt>
      <trkpt lat="31.583438" lon="-97.167617">
        <ele>150.732085</ele>
        <time>2025-06-07T08:26:24.000Z</time>
      </trkpt>
      <trkpt lat="31.58341" lon="-97.167853">
        <ele>151.402066</ele>
        <time>2025-06-07T08:26:26.000Z</time>
      </trkpt>
      <trkpt lat="31.583343" lon="-97.167909">
        <ele>151.694302</ele>
        <time>2025-06-07T08:26:27.000Z</time>
      </trkpt>
      <trkpt lat="31.583334" lon="-97.168001">
        <ele>151.950138</ele>
        <time>2025-06-07T08:26:28.000Z</time>
      </trkpt>
      <trkpt lat="31.583268" lon="-97.168039">
        <ele>152.18422</ele>
        <time>2025-06-07T08:26:29.000Z</time>
      </trkpt>
      <trkpt lat="31.583231" lon="-97.168001">
        <ele>152.324962</ele>
        <time>2025-06-07T08:26:30.000Z</time>
      </trkpt>
      <trkpt lat="31.583209" lon="-97.16794">
        <ele>152.55861</ele>
        <time>2025-06-07T08:26:31.000Z</time>
      </trkpt>
      <trkpt lat="31.583146" lon="-97.167946">
        <ele>152.713956</ele>
        <time>2025-06-07T08:26:32.000Z</time>
      </trkpt>
      <trkpt lat="31.583021" lon="-97.168008">
        <ele>153.205362</ele>
        <time>2025-06-07T08:26:34.000Z</time>
      </trkpt>
      <trkpt lat="31.582836" lon="-97.168356">
        <ele>153.898789</ele>
        <time>2025-06-07T08:26:38.000Z</time>
      </trkpt>
      <trkpt lat="31.582844" lon="-97.168412">
        <ele>153.849863</ele>
        <time>2025-06-07T08:26:39.000Z</time>
      </trkpt>
      <trkpt lat="31.582883" lon="-97.168529">
        <ele>153.759737</ele>
        <time>2025-06-07T08:26:40.000Z</time>
      </trkpt>
      <trkpt lat="31.583031" lon="-97.168583">
        <ele>153.632362</ele>
        <time>2025-06-07T08:26:42.000Z</time>
      </trkpt>
      <trkpt lat="31.583097" lon="-97.168571">
        <ele>153.568891</ele>
        <time>2025-06-07T08:26:43.000Z</time>
      </trkpt>
      <trkpt lat="31.583201" lon="-97.168506">
        <ele>153.474354</ele>
        <time>2025-06-07T08:26:44.000Z</time>
      </trkpt>
      <trkpt lat="31.583186" lon="-97.16848">
        <ele>153.452846</ele>
        <time>2025-06-07T08:26:44.000Z</time>
      </trkpt>
      <trkpt lat="31.583132" lon="-97.168475">
        <ele>153.406716</ele>
        <time>2025-06-07T08:26:45.000Z</time>
      </trkpt>
      <trkpt lat="31.583059" lon="-97.16842">
        <ele>153.338295</ele>
        <time>2025-06-07T08:26:46.000Z</time>
      </trkpt>
      <trkpt lat="31.583084" lon="-97.168359">
        <ele>153.287678</ele>
        <time>2025-06-07T08:26:47.000Z</time>
      </trkpt>
      <trkpt lat="31.583148" lon="-97.168286">
        <ele>153.209985</ele>
        <time>2025-06-07T08:26:48.000Z</time>
      </trkpt>
      <trkpt lat="31.58317" lon="-97.168276">
        <ele>153.184476</ele>
        <time>2025-06-07T08:26:48.000Z</time>
      </trkpt>
      <trkpt lat="31.5832" lon="-97.168317">
        <ele>153.14321</ele>
        <time>2025-06-07T08:26:49.000Z</time>
      </trkpt>
      <trkpt lat="31.583241" lon="-97.1684">
        <ele>153.075632</ele>
        <time>2025-06-07T08:26:50.000Z</time>
      </trkpt>
      <trkpt lat="31.58337" lon="-97.168423">
        <ele>152.96264</ele>
        <time>2025-06-07T08:26:51.000Z</time>
      </trkpt>
      <trkpt lat="31.58345" lon="-97.168386">
        <ele>152.886699</ele>
        <time>2025-06-07T08:26:52.000Z</time>
      </trkpt>
      <trkpt lat="31.583867" lon="-97.167947">
        <ele>152.399211</ele>
        <time>2025-06-07T08:26:58.000Z</time>
      </trkpt>
      <trkpt lat="31.584067" lon="-97.167842">
        <ele>152.088648</ele>
        <time>2025-06-07T08:27:00.000Z</time>
      </trkpt>
      <trkpt lat="31.584137" lon="-97.167828">
        <ele>151.983702</ele>
        <time>2025-06-07T08:27:01.000Z</time>
      </trkpt>
      <trkpt lat="31.584163" lon="-97.167808">
        <ele>151.935005</ele>
        <time>2025-06-07T08:27:01.000Z</time>
      </trkpt>
      <trkpt lat="31.584164" lon="-97.167734">
        <ele>151.847992</ele>
        <time>2025-06-07T08:27:02.000Z</time>
      </trkpt>
      <trkpt lat="31.584233" lon="-97.167656">
        <ele>151.714122</ele>
        <time>2025-06-07T08:27:03.000Z</time>
      </trkpt>
      <trkpt lat="31.584278" lon="-97.167544">
        <ele>151.580538</ele>
        <time>2025-06-07T08:27:04.000Z</time>
      </trkpt>
      <trkpt lat="31.584273" lon="-97.167457">
        <ele>151.4735</ele>
        <time>2025-06-07T08:27:05.000Z</time>
      </trkpt>
      <trkpt lat="31.58431" lon="-97.167411">
        <ele>151.402128</ele>
        <time>2025-06-07T08:27:06.000Z</time>
      </trkpt>
      <trkpt lat="31.584389" lon="-97.167314">
        <ele>151.247121</ele>
        <time>2025-06-07T08:27:07.000Z</time>
      </trkpt>
      <trkpt lat="31.58445" lon="-97.167299">
        <ele>151.153038</ele>
        <time>2025-06-07T08:27:08.000Z</time>
      </trkpt>
      <trkpt lat="31.58458" lon="-97.167363">
        <ele>150.96352</ele>
        <time>2025-06-07T08:27:10.000Z</time>
      </trkpt>
      <trkpt lat="31.584614" lon="-97.167497">
        <ele>150.789634</ele>
        <time>2025-06-07T08:27:11.000Z</time>
      </trkpt>
      <trkpt lat="31.584646" lon="-97.167516">
        <ele>150.732363</ele>
        <time>2025-06-07T08:27:11.000Z</time>
      </trkpt>
      <trkpt lat="31.584677" lon="-97.167521">
        <ele>150.682627</ele>
        <time>2025-06-07T08:27:11.000Z</time>
      </trkpt>
      <trkpt lat="31.584732" lon="-97.167423">
        <ele>150.548455</ele>
        <time>2025-06-07T08:27:12.000Z</time>
      </trkpt>
      <trkpt lat="31.584867" lon="-97.167246">
        <ele>150.275829</ele>
        <time>2025-06-07T08:27:14.000Z</time>
      </trkpt>
      <trkpt lat="31.584884" lon="-97.167107">
        <ele>150.106244</ele>
        <time>2025-06-07T08:27:15.000Z</time>
      </trkpt>
      <trkpt lat="31.584911" lon="-97.167053">
        <ele>150.01384</ele>
        <time>2025-06-07T08:27:16.000Z</time>
      </trkpt>
      <trkpt lat="31.585172" lon="-97.166933">
        <ele>149.954067</ele>
        <time>2025-06-07T08:27:19.000Z</time>
      </trkpt>
      <trkpt lat="31.585362" lon="-97.166711">
        <ele>149.975234</ele>
        <time>2025-06-07T08:27:22.000Z</time>
      </trkpt>
      <trkpt lat="31.585477" lon="-97.166482">
        <ele>149.994289</ele>
        <time>2025-06-07T08:27:25.000Z</time>
      </trkpt>
      <trkpt lat="31.585487" lon="-97.166349">
        <ele>150.003179</ele>
        <time>2025-06-07T08:27:26.000Z</time>
      </trkpt>
      <trkpt lat="31.58567" lon="-97.166323">
        <ele>150.017725</ele>
        <time>2025-06-07T08:27:28.000Z</time>
      </trkpt>
      <trkpt lat="31.585696" lon="-97.166333">
        <ele>150.018941</ele>
        <time>2025-06-07T08:27:28.000Z</time>
      </trkpt>
      <trkpt lat="31.585784" lon="-97.166268">
        <ele>150.027138</ele>
        <time>2025-06-07T08:27:29.000Z</time>
      </trkpt>
      <trkpt lat="31.585865" lon="-97.1663">
        <ele>150.034871</ele>
        <time>2025-06-07T08:27:30.000Z</time>
      </trkpt>
      <trkpt lat="31.585894" lon="-97.166285">
        <ele>150.037985</ele>
        <time>2025-06-07T08:27:30.000Z</time>
      </trkpt>
      <trkpt lat="31.585987" lon="-97.166028">
        <ele>150.056685</ele>
        <time>2025-06-07T08:27:33.000Z</time>
      </trkpt>
      <trkpt lat="31.586172" lon="-97.165825">
        <ele>150.07693</ele>
        <time>2025-06-07T08:27:36.000Z</time>
      </trkpt>
      <trkpt lat="31.586225" lon="-97.165707">
        <ele>150.026799</ele>
        <time>2025-06-07T08:27:37.000Z</time>
      </trkpt>
      <trkpt lat="31.586448" lon="-97.165653">
        <ele>149.807409</ele>
        <time>2025-06-07T08:27:40.000Z</time>
      </trkpt>
      <trkpt lat="31.58661" lon="-97.165532">
        <ele>149.631036</ele>
        <time>2025-06-07T08:27:42.000Z</time>
      </trkpt>
      <trkpt lat="31.586765" lon="-97.165284">
        <ele>149.377249</ele>
        <time>2025-06-07T08:27:45.000Z</time>
      </trkpt>
      <trkpt lat="31.586919" lon="-97.164943">
        <ele>149.064975</ele>
        <time>2025-06-07T08:27:49.000Z</time>
      </trkpt>
      <trkpt lat="31.587016" lon="-97.164832">
        <ele>148.937926</ele>
        <time>2025-06-07T08:27:51.000Z</time>
      </trkpt>
      <trkpt lat="31.587095" lon="-97.164737">
        <ele>148.828489</ele>
        <time>2025-06-07T08:27:52.000Z</time>
      </trkpt>
      <trkpt lat="31.587166" lon="-97.164689">
        <ele>148.76216</ele>
        <time>2025-06-07T08:27:53.000Z</time>
      </trkpt>
      <trkpt lat="31.587241" lon="-97.164681">
        <ele>148.680516</ele>
        <time>2025-06-07T08:27:54.000Z</time>
      </trkpt>
      <trkpt lat="31.587327" lon="-97.16472">
        <ele>148.590307</ele>
        <time>2025-06-07T08:27:55.000Z</time>
      </trkpt>
      <trkpt lat="31.587448" lon="-97.16485">
        <ele>148.442005</ele>
        <time>2025-06-07T08:27:57.000Z</time>
      </trkpt>
      <trkpt lat="31.587481" lon="-97.164624">
        <ele>147.547513</ele>
        <time>2025-06-07T08:27:59.000Z</time>
      </trkpt>
      <trkpt lat="31.587475" lon="-97.164018">
        <ele>143.950394</ele>
        <time>2025-06-07T08:28:05.000Z</time>
      </trkpt>
      <trkpt lat="31.587512" lon="-97.163895">
        <ele>143.144292</ele>
        <time>2025-06-07T08:28:06.000Z</time>
      </trkpt>
      <trkpt lat="31.587761" lon="-97.163689">
        <ele>141.058325</ele>
        <time>2025-06-07T08:28:09.000Z</time>
      </trkpt>
      <trkpt lat="31.58785" lon="-97.163672">
        <ele>140.460836</ele>
        <time>2025-06-07T08:28:10.000Z</time>
      </trkpt>
      <trkpt lat="31.587902" lon="-97.163627">
        <ele>140.000011</ele>
        <time>2025-06-07T08:28:11.000Z</time>
      </trkpt>
      <trkpt lat="31.588094" lon="-97.163376">
        <ele>137.981308</ele>
        <time>2025-06-07T08:28:14.000Z</time>
      </trkpt>
      <trkpt lat="31.588141" lon="-97.163238">
        <ele>137.195199</ele>
        <time>2025-06-07T08:28:15.000Z</time>
      </trkpt>
      <trkpt lat="31.588147" lon="-97.163064">
        <ele>136.105518</ele>
        <time>2025-06-07T08:28:17.000Z</time>
      </trkpt>
      <trkpt lat="31.588084" lon="-97.162916">
        <ele>135.547348</ele>
        <time>2025-06-07T08:28:19.000Z</time>
      </trkpt>
      <trkpt lat="31.588053" lon="-97.162834">
        <ele>135.249369</ele>
        <time>2025-06-07T08:28:20.000Z</time>
      </trkpt>
      <trkpt lat="31.58795" lon="-97.162757">
        <ele>134.813744</ele>
        <time>2025-06-07T08:28:21.000Z</time>
      </trkpt>
      <trkpt lat="31.587723" lon="-97.162763">
        <ele>133.958373</ele>
        <time>2025-06-07T08:28:24.000Z</time>
      </trkpt>
      <trkpt lat="31.587553" lon="-97.162707">
        <ele>133.34857</ele>
        <time>2025-06-07T08:28:26.000Z</time>
      </trkpt>
      <trkpt lat="31.587187" lon="-97.162475">
        <ele>131.788956</ele>
        <time>2025-06-07T08:28:31.000Z</time>
      </trkpt>
      <trkpt lat="31.587248" lon="-97.162361">
        <ele>131.337096</ele>
        <time>2025-06-07T08:28:32.000Z</time>
      </trkpt>
      <trkpt lat="31.587302" lon="-97.162313">
        <ele>131.061762</ele>
        <time>2025-06-07T08:28:33.000Z</time>
      </trkpt>
      <trkpt lat="31.58752" lon="-97.162182">
        <ele>130.191666</ele>
        <time>2025-06-07T08:28:36.000Z</time>
      </trkpt>
      <trkpt lat="31.587642" lon="-97.162137">
        <ele>129.768368</ele>
        <time>2025-06-07T08:28:37.000Z</time>
      </trkpt>
      <trkpt lat="31.587965" lon="-97.162072">
        <ele>129.6336</ele>
        <time>2025-06-07T08:28:41.000Z</time>
      </trkpt>
      <trkpt lat="31.58805" lon="-97.161999">
        <ele>129.770485</ele>
        <time>2025-06-07T08:28:42.000Z</time>
      </trkpt>
      <trkpt lat="31.588118" lon="-97.161943">
        <ele>129.857358</ele>
        <time>2025-06-07T08:28:43.000Z</time>
      </trkpt>
      <trkpt lat="31.588239" lon="-97.161908">
        <ele>130.006125</ele>
        <time>2025-06-07T08:28:44.000Z</time>
      </trkpt>
      <trkpt lat="31.588308" lon="-97.161903">
        <ele>130.087573</ele>
        <time>2025-06-07T08:28:45.000Z</time>
      </trkpt>
      <trkpt lat="31.588468" lon="-97.161879">
        <ele>130.265595</ele>
        <time>2025-06-07T08:28:47.000Z</time>
      </trkpt>
      <trkpt lat="31.588916" lon="-97.161656">
        <ele>130.85001</ele>
        <time>2025-06-07T08:28:52.000Z</time>
      </trkpt>
      <trkpt lat="31.589053" lon="-97.161429">
        <ele>131.118471</ele>
        <time>2025-06-07T08:28:55.000Z</time>
      </trkpt>
      <trkpt lat="31.589156" lon="-97.161333">
        <ele>131.270979</ele>
        <time>2025-06-07T08:28:56.000Z</time>
      </trkpt>
      <trkpt lat="31.58917" lon="-97.161118">
        <ele>131.541508</ele>
        <time>2025-06-07T08:28:58.000Z</time>
      </trkpt>
      <trkpt lat="31.589283" lon="-97.160777">
        <ele>133.5673</ele>
        <time>2025-06-07T08:29:01.000Z</time>
      </trkpt>
      <trkpt lat="31.589205" lon="-97.160418">
        <ele>135.640297</ele>
        <time>2025-06-07T08:29:05.000Z</time>
      </trkpt>
      <trkpt lat="31.589117" lon="-97.160213">
        <ele>136.934272</ele>
        <time>2025-06-07T08:29:07.000Z</time>
      </trkpt>
      <trkpt lat="31.58913" lon="-97.159913">
        <ele>138.596435</ele>
        <time>2025-06-07T08:29:10.000Z</time>
      </trkpt>
      <trkpt lat="31.589066" lon="-97.159847">
        <ele>139.115354</ele>
        <time>2025-06-07T08:29:11.000Z</time>
      </trkpt>
      <trkpt lat="31.588894" lon="-97.159845">
        <ele>140.246588</ele>
        <time>2025-06-07T08:29:13.000Z</time>
      </trkpt>
      <trkpt lat="31.58884" lon="-97.15982">
        <ele>140.657379</ele>
        <time>2025-06-07T08:29:14.000Z</time>
      </trkpt>
      <trkpt lat="31.588801" lon="-97.159764">
        <ele>141.099518</ele>
        <time>2025-06-07T08:29:15.000Z</time>
      </trkpt>
      <trkpt lat="31.588718" lon="-97.159491">
        <ele>142.687925</ele>
        <time>2025-06-07T08:29:18.000Z</time>
      </trkpt>
      <trkpt lat="31.588731" lon="-97.159334">
        <ele>143.044401</ele>
        <time>2025-06-07T08:29:19.000Z</time>
      </trkpt>
      <trkpt lat="31.588776" lon="-97.159266">
        <ele>142.926628</ele>
        <time>2025-06-07T08:29:20.000Z</time>
      </trkpt>
      <trkpt lat="31.588962" lon="-97.159198">
        <ele>142.652493</ele>
        <time>2025-06-07T08:29:22.000Z</time>
      </trkpt>
      <trkpt lat="31.589007" lon="-97.159159">
        <ele>142.558121</ele>
        <time>2025-06-07T08:29:23.000Z</time>
      </trkpt>
      <trkpt lat="31.589041" lon="-97.159048">
        <ele>142.419828</ele>
        <time>2025-06-07T08:29:24.000Z</time>
      </trkpt>
      <trkpt lat="31.588986" lon="-97.158734">
        <ele>142.022186</ele>
        <time>2025-06-07T08:29:27.000Z</time>
      </trkpt>
      <trkpt lat="31.588945" lon="-97.15867">
        <ele>141.939282</ele>
        <time>2025-06-07T08:29:28.000Z</time>
      </trkpt>
      <trkpt lat="31.588812" lon="-97.158578">
        <ele>141.725567</ele>
        <time>2025-06-07T08:29:30.000Z</time>
      </trkpt>
      <trkpt lat="31.588705" lon="-97.158579">
        <ele>141.564955</ele>
        <time>2025-06-07T08:29:31.000Z</time>
      </trkpt>
      <trkpt lat="31.588521" lon="-97.158677">
        <ele>141.259459</ele>
        <time>2025-06-07T08:29:33.000Z</time>
      </trkpt>
      <trkpt lat="31.588472" lon="-97.158664">
        <ele>141.197989</ele>
        <time>2025-06-07T08:29:34.000Z</time>
      </trkpt>
      <trkpt lat="31.588447" lon="-97.158623">
        <ele>141.136601</ele>
        <time>2025-06-07T08:29:34.000Z</time>
      </trkpt>
      <trkpt lat="31.588455" lon="-97.158464">
        <ele>140.945746</ele>
        <time>2025-06-07T08:29:36.000Z</time>
      </trkpt>
      <trkpt lat="31.588672" lon="-97.158061">
        <ele>139.775328</ele>
        <time>2025-06-07T08:29:41.000Z</time>
      </trkpt>
      <trkpt lat="31.588702" lon="-97.157902">
        <ele>138.764313</ele>
        <time>2025-06-07T08:29:43.000Z</time>
      </trkpt>
      <trkpt lat="31.588703" lon="-97.157817">
        <ele>138.324138</ele>
        <time>2025-06-07T08:29:44.000Z</time>
      </trkpt>
      <trkpt lat="31.588677" lon="-97.157774">
        <ele>137.960389</ele>
        <time>2025-06-07T08:29:45.000Z</time>
      </trkpt>
      <trkpt lat="31.588709" lon="-97.157741">
        <ele>137.685331</ele>
        <time>2025-06-07T08:29:45.000Z</time>
      </trkpt>
      <trkpt lat="31.588756" lon="-97.157732">
        <ele>137.371788</ele>
        <time>2025-06-07T08:29:46.000Z</time>
      </trkpt>
      <trkpt lat="31.588779" lon="-97.157749">
        <ele>137.143391</ele>
        <time>2025-06-07T08:29:46.000Z</time>
      </trkpt>
      <trkpt lat="31.588831" lon="-97.157791">
        <ele>136.639768</ele>
        <time>2025-06-07T08:29:47.000Z</time>
      </trkpt>
      <trkpt lat="31.588869" lon="-97.157828">
        <ele>136.396652</ele>
        <time>2025-06-07T08:29:48.000Z</time>
      </trkpt>
      <trkpt lat="31.588876" lon="-97.157863">
        <ele>136.194358</ele>
        <time>2025-06-07T08:29:48.000Z</time>
      </trkpt>
      <trkpt lat="31.588895" lon="-97.157876">
        <ele>136.079672</ele>
        <time>2025-06-07T08:29:48.000Z</time>
      </trkpt>
      <trkpt lat="31.588908" lon="-97.157871">
        <ele>135.933163</ele>
        <time>2025-06-07T08:29:48.000Z</time>
      </trkpt>
      <trkpt lat="31.588928" lon="-97.157863">
        <ele>135.849156</ele>
        <time>2025-06-07T08:29:48.000Z</time>
      </trkpt>
      <trkpt lat="31.588931" lon="-97.157809">
        <ele>135.542428</ele>
        <time>2025-06-07T08:29:49.000Z</time>
      </trkpt>
      <trkpt lat="31.588856" lon="-97.157709">
        <ele>134.771559</ele>
        <time>2025-06-07T08:29:50.000Z</time>
      </trkpt>
      <trkpt lat="31.588808" lon="-97.157616">
        <ele>134.247674</ele>
        <time>2025-06-07T08:29:51.000Z</time>
      </trkpt>
      <trkpt lat="31.588821" lon="-97.157457">
        <ele>133.271415</ele>
        <time>2025-06-07T08:29:53.000Z</time>
      </trkpt>
      <trkpt lat="31.588829" lon="-97.157377">
        <ele>132.828603</ele>
        <time>2025-06-07T08:29:54.000Z</time>
      </trkpt>
      <trkpt lat="31.588862" lon="-97.157366">
        <ele>132.652348</ele>
        <time>2025-06-07T08:29:54.000Z</time>
      </trkpt>
      <trkpt lat="31.588871" lon="-97.157361">
        <ele>132.523032</ele>
        <time>2025-06-07T08:29:54.000Z</time>
      </trkpt>
      <trkpt lat="31.58888" lon="-97.157416">
        <ele>132.181961</ele>
        <time>2025-06-07T08:29:55.000Z</time>
      </trkpt>
      <trkpt lat="31.588916" lon="-97.157494">
        <ele>131.746237</ele>
        <time>2025-06-07T08:29:56.000Z</time>
      </trkpt>
      <trkpt lat="31.588941" lon="-97.157527">
        <ele>131.425273</ele>
        <time>2025-06-07T08:29:56.000Z</time>
      </trkpt>
      <trkpt lat="31.588975" lon="-97.157582">
        <ele>131.086782</ele>
        <time>2025-06-07T08:29:57.000Z</time>
      </trkpt>
      <trkpt lat="31.589034" lon="-97.157674">
        <ele>130.429864</ele>
        <time>2025-06-07T08:29:58.000Z</time>
      </trkpt>
      <trkpt lat="31.589045" lon="-97.157717">
        <ele>130.156137</ele>
        <time>2025-06-07T08:29:58.000Z</time>
      </trkpt>
      <trkpt lat="31.589074" lon="-97.157752">
        <ele>129.848132</ele>
        <time>2025-06-07T08:29:58.000Z</time>
      </trkpt>
      <trkpt lat="31.589091" lon="-97.157806">
        <ele>129.53304</ele>
        <time>2025-06-07T08:29:59.000Z</time>
      </trkpt>
      <trkpt lat="31.589126" lon="-97.157867">
        <ele>129.123798</ele>
        <time>2025-06-07T08:30:00.000Z</time>
      </trkpt>
      <trkpt lat="31.589174" lon="-97.157814">
        <ele>128.740677</ele>
        <time>2025-06-07T08:30:01.000Z</time>
      </trkpt>
      <trkpt lat="31.589154" lon="-97.157782">
        <ele>128.636818</ele>
        <time>2025-06-07T08:30:01.000Z</time>
      </trkpt>
      <trkpt lat="31.589121" lon="-97.157716">
        <ele>128.237629</ele>
        <time>2025-06-07T08:30:02.000Z</time>
      </trkpt>
      <trkpt lat="31.589136" lon="-97.157721">
        <ele>128.237613</ele>
        <time>2025-06-07T08:30:02.000Z</time>
      </trkpt>
      <trkpt lat="31.589056" lon="-97.157405">
        <ele>127.321216</ele>
        <time>2025-06-07T08:30:05.000Z</time>
      </trkpt>
      <trkpt lat="31.588997" lon="-97.157292">
        <ele>126.974279</ele>
        <time>2025-06-07T08:30:06.000Z</time>
      </trkpt>
      <trkpt lat="31.588937" lon="-97.157226">
        <ele>126.681399</ele>
        <time>2025-06-07T08:30:07.000Z</time>
      </trkpt>
      <trkpt lat="31.588862" lon="-97.156905">
        <ele>125.743569</ele>
        <time>2025-06-07T08:30:10.000Z</time>
      </trkpt>
      <trkpt lat="31.588939" lon="-97.15694">
        <ele>125.487663</ele>
        <time>2025-06-07T08:30:11.000Z</time>
      </trkpt>
      <trkpt lat="31.589003" lon="-97.156928">
        <ele>125.260991</ele>
        <time>2025-06-07T08:30:12.000Z</time>
      </trkpt>
      <trkpt lat="31.588926" lon="-97.156589">
        <ele>124.276654</ele>
        <time>2025-06-07T08:30:15.000Z</time>
      </trkpt>
      <trkpt lat="31.588786" lon="-97.156351">
        <ele>123.44822</ele>
        <time>2025-06-07T08:30:18.000Z</time>
      </trkpt>
      <trkpt lat="31.588654" lon="-97.156247">
        <ele>122.861972</ele>
        <time>2025-06-07T08:30:20.000Z</time>
      </trkpt>
      <trkpt lat="31.58799" lon="-97.155899">
        <ele>124.677052</ele>
        <time>2025-06-07T08:30:28.000Z</time>
      </trkpt>
      <trkpt lat="31.587936" lon="-97.155927">
        <ele>124.908529</ele>
        <time>2025-06-07T08:30:29.000Z</time>
      </trkpt>
      <trkpt lat="31.587902" lon="-97.156028">
        <ele>125.254778</ele>
        <time>2025-06-07T08:30:30.000Z</time>
      </trkpt>
      <trkpt lat="31.5877" lon="-97.15623">
        <ele>126.37356</ele>
        <time>2025-06-07T08:30:33.000Z</time>
      </trkpt>
      <trkpt lat="31.587618" lon="-97.156168">
        <ele>126.796757</ele>
        <time>2025-06-07T08:30:34.000Z</time>
      </trkpt>
      <trkpt lat="31.587343" lon="-97.156183">
        <ele>127.908938</ele>
        <time>2025-06-07T08:30:37.000Z</time>
      </trkpt>
      <trkpt lat="31.587175" lon="-97.156137">
        <ele>128.593807</ele>
        <time>2025-06-07T08:30:39.000Z</time>
      </trkpt>
      <trkpt lat="31.587021" lon="-97.156059">
        <ele>129.267757</ele>
        <time>2025-06-07T08:30:41.000Z</time>
      </trkpt>
      <trkpt lat="31.586751" lon="-97.155925">
        <ele>130.813522</ele>
        <time>2025-06-07T08:30:44.000Z</time>
      </trkpt>
      <trkpt lat="31.586483" lon="-97.155709">
        <ele>132.779671</ele>
        <time>2025-06-07T08:30:48.000Z</time>
      </trkpt>
      <trkpt lat="31.586379" lon="-97.155648">
        <ele>133.472199</ele>
        <time>2025-06-07T08:30:49.000Z</time>
      </trkpt>
      <trkpt lat="31.585977" lon="-97.155511">
        <ele>136.047005</ele>
        <time>2025-06-07T08:30:54.000Z</time>
      </trkpt>
      <trkpt lat="31.585923" lon="-97.155503">
        <ele>136.299292</ele>
        <time>2025-06-07T08:30:55.000Z</time>
      </trkpt>
      <trkpt lat="31.585634" lon="-97.155607">
        <ele>138.170996</ele>
        <time>2025-06-07T08:30:58.000Z</time>
      </trkpt>
      <trkpt lat="31.585499" lon="-97.155604">
        <ele>138.941945</ele>
        <time>2025-06-07T08:31:00.000Z</time>
      </trkpt>
      <trkpt lat="31.585195" lon="-97.155547">
        <ele>140.493945</ele>
        <time>2025-06-07T08:31:03.000Z</time>
      </trkpt>
      <trkpt lat="31.585124" lon="-97.155553">
        <ele>140.580963</ele>
        <time>2025-06-07T08:31:04.000Z</time>
      </trkpt>
      <trkpt lat="31.584994" lon="-97.155341">
        <ele>140.871849</ele>
        <time>2025-06-07T08:31:06.000Z</time>
      </trkpt>
      <trkpt lat="31.58474" lon="-97.155156">
        <ele>141.253869</ele>
        <time>2025-06-07T08:31:09.000Z</time>
      </trkpt>
      <trkpt lat="31.584662" lon="-97.155109">
        <ele>141.365071</ele>
        <time>2025-06-07T08:31:10.000Z</time>
      </trkpt>
      <trkpt lat="31.584514" lon="-97.155053">
        <ele>141.562642</ele>
        <time>2025-06-07T08:31:12.000Z</time>
      </trkpt>
      <trkpt lat="31.584419" lon="-97.155078">
        <ele>141.677454</ele>
        <time>2025-06-07T08:31:13.000Z</time>
      </trkpt>
      <trkpt lat="31.584128" lon="-97.155112">
        <ele>142.042802</ele>
        <time>2025-06-07T08:31:16.000Z</time>
      </trkpt>
      <trkpt lat="31.58403" lon="-97.155315">
        <ele>142.288362</ele>
        <time>2025-06-07T08:31:18.000Z</time>
      </trkpt>
      <trkpt lat="31.583912" lon="-97.155061">
        <ele>142.579041</ele>
        <time>2025-06-07T08:31:21.000Z</time>
      </trkpt>
      <trkpt lat="31.583674" lon="-97.154757">
        <ele>141.416967</ele>
        <time>2025-06-07T08:31:25.000Z</time>
      </trkpt>
      <trkpt lat="31.583559" lon="-97.154655">
        <ele>140.755958</ele>
        <time>2025-06-07T08:31:27.000Z</time>
      </trkpt>
      <trkpt lat="31.583361" lon="-97.154551">
        <ele>139.637233</ele>
        <time>2025-06-07T08:31:29.000Z</time>
      </trkpt>
      <trkpt lat="31.583153" lon="-97.154374">
        <ele>138.452186</ele>
        <time>2025-06-07T08:31:32.000Z</time>
      </trkpt>
      <trkpt lat="31.583065" lon="-97.154311">
        <ele>138.011117</ele>
        <time>2025-06-07T08:31:33.000Z</time>
      </trkpt>
      <trkpt lat="31.582905" lon="-97.154302">
        <ele>137.24536</ele>
        <time>2025-06-07T08:31:35.000Z</time>
      </trkpt>
      <trkpt lat="31.582833" lon="-97.154234">
        <ele>136.81525</ele>
        <time>2025-06-07T08:31:36.000Z</time>
      </trkpt>
      <trkpt lat="31.582695" lon="-97.154032">
        <ele>135.752718</ele>
        <time>2025-06-07T08:31:38.000Z</time>
      </trkpt>
      <trkpt lat="31.582419" lon="-97.153501">
        <ele>133.941025</ele>
        <time>2025-06-07T08:31:44.000Z</time>
      </trkpt>
      <trkpt lat="31.582306" lon="-97.153416">
        <ele>133.826738</ele>
        <time>2025-06-07T08:31:45.000Z</time>
      </trkpt>
      <trkpt lat="31.582249" lon="-97.153394">
        <ele>133.764522</ele>
        <time>2025-06-07T08:31:46.000Z</time>
      </trkpt>
      <trkpt lat="31.582011" lon="-97.153509">
        <ele>133.543234</ele>
        <time>2025-06-07T08:31:49.000Z</time>
      </trkpt>
      <trkpt lat="31.582001" lon="-97.153391">
        <ele>133.458296</ele>
        <time>2025-06-07T08:31:50.000Z</time>
      </trkpt>
      <trkpt lat="31.582026" lon="-97.153241">
        <ele>133.34056</ele>
        <time>2025-06-07T08:31:51.000Z</time>
      </trkpt>
      <trkpt lat="31.582118" lon="-97.153157">
        <ele>133.234649</ele>
        <time>2025-06-07T08:31:52.000Z</time>
      </trkpt>
      <trkpt lat="31.582118" lon="-97.15308">
        <ele>133.182531</ele>
        <time>2025-06-07T08:31:53.000Z</time>
      </trkpt>
      <trkpt lat="31.582125" lon="-97.153034">
        <ele>133.140226</ele>
        <time>2025-06-07T08:31:53.000Z</time>
      </trkpt>
      <trkpt lat="31.582087" lon="-97.153002">
        <ele>133.095771</ele>
        <time>2025-06-07T08:31:54.000Z</time>
      </trkpt>
      <trkpt lat="31.582031" lon="-97.153017">
        <ele>133.045654</ele>
        <time>2025-06-07T08:31:55.000Z</time>
      </trkpt>
      <trkpt lat="31.582009" lon="-97.152994">
        <ele>133.024097</ele>
        <time>2025-06-07T08:31:55.000Z</time>
      </trkpt>
      <trkpt lat="31.58199" lon="-97.152904">
        <ele>132.958723</ele>
        <time>2025-06-07T08:31:56.000Z</time>
      </trkpt>
      <trkpt lat="31.581892" lon="-97.152964">
        <ele>132.864217</ele>
        <time>2025-06-07T08:31:57.000Z</time>
      </trkpt>
      <trkpt lat="31.581868" lon="-97.152943">
        <ele>132.839274</ele>
        <time>2025-06-07T08:31:57.000Z</time>
      </trkpt>
      <trkpt lat="31.581885" lon="-97.152673">
        <ele>132.634228</ele>
        <time>2025-06-07T08:32:00.000Z</time>
      </trkpt>
      <trkpt lat="31.581875" lon="-97.152561">
        <ele>132.539073</ele>
        <time>2025-06-07T08:32:01.000Z</time>
      </trkpt>
      <trkpt lat="31.581968" lon="-97.152416">
        <ele>132.939994</ele>
        <time>2025-06-07T08:32:03.000Z</time>
      </trkpt>
      <trkpt lat="31.581966" lon="-97.152376">
        <ele>133.07067</ele>
        <time>2025-06-07T08:32:03.000Z</time>
      </trkpt>
      <trkpt lat="31.581842" lon="-97.152327">
        <ele>133.561192</ele>
        <time>2025-06-07T08:32:04.000Z</time>
      </trkpt>
      <trkpt lat="31.581779" lon="-97.152278">
        <ele>133.790555</ele>
        <time>2025-06-07T08:32:05.000Z</time>
      </trkpt>
      <trkpt lat="31.581665" lon="-97.152248">
        <ele>134.230054</ele>
        <time>2025-06-07T08:32:06.000Z</time>
      </trkpt>
      <trkpt lat="31.581594" lon="-97.152277">
        <ele>134.49902</ele>
        <time>2025-06-07T08:32:07.000Z</time>
      </trkpt>
      <trkpt lat="31.581593" lon="-97.152304">
        <ele>134.590732</ele>
        <time>2025-06-07T08:32:07.000Z</time>
      </trkpt>
      <trkpt lat="31.581668" lon="-97.152362">
        <ele>134.90292</ele>
        <time>2025-06-07T08:32:08.000Z</time>
      </trkpt>
      <trkpt lat="31.581662" lon="-97.15241">
        <ele>135.057952</ele>
        <time>2025-06-07T08:32:08.000Z</time>
      </trkpt>
      <trkpt lat="31.581648" lon="-97.152428">
        <ele>135.11668</ele>
        <time>2025-06-07T08:32:08.000Z</time>
      </trkpt>
      <trkpt lat="31.58159" lon="-97.152457">
        <ele>135.34021</ele>
        <time>2025-06-07T08:32:09.000Z</time>
      </trkpt>
      <trkpt lat="31.581624" lon="-97.152547">
        <ele>135.635264</ele>
        <time>2025-06-07T08:32:10.000Z</time>
      </trkpt>
      <trkpt lat="31.581589" lon="-97.152596">
        <ele>135.855289</ele>
        <time>2025-06-07T08:32:11.000Z</time>
      </trkpt>
      <trkpt lat="31.58143" lon="-97.152632">
        <ele>136.410735</ele>
        <time>2025-06-07T08:32:13.000Z</time>
      </trkpt>
      <trkpt lat="31.581386" lon="-97.15273">
        <ele>136.736221</ele>
        <time>2025-06-07T08:32:14.000Z</time>
      </trkpt>
      <trkpt lat="31.581327" lon="-97.152725">
        <ele>136.954411</ele>
        <time>2025-06-07T08:32:15.000Z</time>
      </trkpt>
      <trkpt lat="31.581304" lon="-97.152668">
        <ele>137.17797</ele>
        <time>2025-06-07T08:32:16.000Z</time>
      </trkpt>
      <trkpt lat="31.581233" lon="-97.152655">
        <ele>137.396147</ele>
        <time>2025-06-07T08:32:17.000Z</time>
      </trkpt>
      <trkpt lat="31.581197" lon="-97.152685">
        <ele>137.561093</ele>
        <time>2025-06-07T08:32:17.000Z</time>
      </trkpt>
      <trkpt lat="31.581097" lon="-97.152649">
        <ele>137.984033</ele>
        <time>2025-06-07T08:32:18.000Z</time>
      </trkpt>
      <trkpt lat="31.580832" lon="-97.152655">
        <ele>138.916842</ele>
        <time>2025-06-07T08:32:21.000Z</time>
      </trkpt>
      <trkpt lat="31.580639" lon="-97.152617">
        <ele>138.695949</ele>
        <time>2025-06-07T08:32:23.000Z</time>
      </trkpt>
      <trkpt lat="31.580583" lon="-97.152574">
        <ele>138.605812</ele>
        <time>2025-06-07T08:32:24.000Z</time>
      </trkpt>
      <trkpt lat="31.580543" lon="-97.15252">
        <ele>138.548884</ele>
        <time>2025-06-07T08:32:25.000Z</time>
      </trkpt>
      <trkpt lat="31.580548" lon="-97.152436">
        <ele>138.461751</ele>
        <time>2025-06-07T08:32:26.000Z</time>
      </trkpt>
      <trkpt lat="31.580692" lon="-97.152181">
        <ele>138.135314</ele>
        <time>2025-06-07T08:32:29.000Z</time>
      </trkpt>
      <trkpt lat="31.580723" lon="-97.152052">
        <ele>137.998639</ele>
        <time>2025-06-07T08:32:30.000Z</time>
      </trkpt>
      <trkpt lat="31.580718" lon="-97.151943">
        <ele>137.88423</ele>
        <time>2025-06-07T08:32:31.000Z</time>
      </trkpt>
      <trkpt lat="31.580645" lon="-97.151849">
        <ele>137.767323</ele>
        <time>2025-06-07T08:32:32.000Z</time>
      </trkpt>
      <trkpt lat="31.5805" lon="-97.15175">
        <ele>137.573541</ele>
        <time>2025-06-07T08:32:34.000Z</time>
      </trkpt>
      <trkpt lat="31.580418" lon="-97.151468">
        <ele>137.264498</ele>
        <time>2025-06-07T08:32:37.000Z</time>
      </trkpt>
      <trkpt lat="31.580319" lon="-97.15142">
        <ele>137.123899</ele>
        <time>2025-06-07T08:32:38.000Z</time>
      </trkpt>
      <trkpt lat="31.580166" lon="-97.151389">
        <ele>136.938023</ele>
        <time>2025-06-07T08:32:40.000Z</time>
      </trkpt>
      <trkpt lat="31.580061" lon="-97.15127">
        <ele>136.754398</ele>
        <time>2025-06-07T08:32:42.000Z</time>
      </trkpt>
      <trkpt lat="31.579775" lon="-97.151158">
        <ele>136.402019</ele>
        <time>2025-06-07T08:32:45.000Z</time>
      </trkpt>
      <trkpt lat="31.579715" lon="-97.151176">
        <ele>136.327244</ele>
        <time>2025-06-07T08:32:46.000Z</time>
      </trkpt>
      <trkpt lat="31.579673" lon="-97.151231">
        <ele>136.254353</ele>
        <time>2025-06-07T08:32:47.000Z</time>
      </trkpt>
      <trkpt lat="31.57957" lon="-97.151608">
        <ele>135.867999</ele>
        <time>2025-06-07T08:32:51.000Z</time>
      </trkpt>
      <trkpt lat="31.579554" lon="-97.151762">
        <ele>135.720873</ele>
        <time>2025-06-07T08:32:52.000Z</time>
      </trkpt>
      <trkpt lat="31.579581" lon="-97.151954">
        <ele>135.529377</ele>
        <time>2025-06-07T08:32:54.000Z</time>
      </trkpt>
      <trkpt lat="31.579532" lon="-97.152152">
        <ele>135.327213</ele>
        <time>2025-06-07T08:32:56.000Z</time>
      </trkpt>
      <trkpt lat="31.579468" lon="-97.152477">
        <ele>134.997412</ele>
        <time>2025-06-07T08:32:59.000Z</time>
      </trkpt>
      <trkpt lat="31.579576" lon="-97.152963">
        <ele>134.393557</ele>
        <time>2025-06-07T08:33:04.000Z</time>
      </trkpt>
      <trkpt lat="31.579676" lon="-97.153284">
        <ele>133.86376</ele>
        <time>2025-06-07T08:33:07.000Z</time>
      </trkpt>
      <trkpt lat="31.579657" lon="-97.153406">
        <ele>133.675933</ele>
        <time>2025-06-07T08:33:08.000Z</time>
      </trkpt>
      <trkpt lat="31.579608" lon="-97.153426">
        <ele>133.571372</ele>
        <time>2025-06-07T08:33:09.000Z</time>
      </trkpt>
      <trkpt lat="31.579565" lon="-97.153418">
        <ele>133.502857</ele>
        <time>2025-06-07T08:33:09.000Z</time>
      </trkpt>
      <trkpt lat="31.579508" lon="-97.153377">
        <ele>133.377872</ele>
        <time>2025-06-07T08:33:10.000Z</time>
      </trkpt>
      <trkpt lat="31.57939" lon="-97.153107">
        <ele>132.915486</ele>
        <time>2025-06-07T08:33:13.000Z</time>
      </trkpt>
      <trkpt lat="31.579204" lon="-97.152764">
        <ele>132.290955</ele>
        <time>2025-06-07T08:33:17.000Z</time>
      </trkpt>
      <trkpt lat="31.579107" lon="-97.152429">
        <ele>131.750511</ele>
        <time>2025-06-07T08:33:20.000Z</time>
      </trkpt>
      <trkpt lat="31.579106" lon="-97.152409">
        <ele>131.722328</ele>
        <time>2025-06-07T08:33:20.000Z</time>
      </trkpt>
      <trkpt lat="31.579087" lon="-97.152285">
        <ele>131.515</ele>
        <time>2025-06-07T08:33:21.000Z</time>
      </trkpt>
      <trkpt lat="31.579074" lon="-97.152093">
        <ele>130.944721</ele>
        <time>2025-06-07T08:33:23.000Z</time>
      </trkpt>
      <trkpt lat="31.579137" lon="-97.152021">
        <ele>130.534654</ele>
        <time>2025-06-07T08:33:24.000Z</time>
      </trkpt>
      <trkpt lat="31.579188" lon="-97.151927">
        <ele>130.081075</ele>
        <time>2025-06-07T08:33:25.000Z</time>
      </trkpt>
      <trkpt lat="31.579159" lon="-97.151739">
        <ele>129.349939</ele>
        <time>2025-06-07T08:33:27.000Z</time>
      </trkpt>
      <trkpt lat="31.579239" lon="-97.151595">
        <ele>128.709735</ele>
        <time>2025-06-07T08:33:29.000Z</time>
      </trkpt>
      <trkpt lat="31.579271" lon="-97.151328">
        <ele>127.709566</ele>
        <time>2025-06-07T08:33:32.000Z</time>
      </trkpt>
      <trkpt lat="31.579314" lon="-97.151247">
        <ele>127.327642</ele>
        <time>2025-06-07T08:33:33.000Z</time>
      </trkpt>
      <trkpt lat="31.579226" lon="-97.151086">
        <ele>126.607171</ele>
        <time>2025-06-07T08:33:35.000Z</time>
      </trkpt>
      <trkpt lat="31.579261" lon="-97.151023">
        <ele>126.294863</ele>
        <time>2025-06-07T08:33:36.000Z</time>
      </trkpt>
      <trkpt lat="31.579204" lon="-97.150771">
        <ele>125.357167</ele>
        <time>2025-06-07T08:33:38.000Z</time>
      </trkpt>
      <trkpt lat="31.57919" lon="-97.150765">
        <ele>125.218164</ele>
        <time>2025-06-07T08:33:38.000Z</time>
      </trkpt>
      <trkpt lat="31.579204" lon="-97.150649">
        <ele>124.718191</ele>
        <time>2025-06-07T08:33:39.000Z</time>
      </trkpt>
      <trkpt lat="31.57945" lon="-97.150377">
        <ele>123.349601</ele>
        <time>2025-06-07T08:33:43.000Z</time>
      </trkpt>
      <trkpt lat="31.579181" lon="-97.150234">
        <ele>122.895982</ele>
        <time>2025-06-07T08:33:46.000Z</time>
      </trkpt>
      <trkpt lat="31.578922" lon="-97.15002">
        <ele>122.41137</ele>
        <time>2025-06-07T08:33:50.000Z</time>
      </trkpt>
      <trkpt lat="31.578716" lon="-97.149964">
        <ele>122.108196</ele>
        <time>2025-06-07T08:33:52.000Z</time>
      </trkpt>
      <trkpt lat="31.578496" lon="-97.149791">
        <ele>121.697324</ele>
        <time>2025-06-07T08:33:55.000Z</time>
      </trkpt>
      <trkpt lat="31.578442" lon="-97.149659">
        <ele>121.502452</ele>
        <time>2025-06-07T08:33:56.000Z</time>
      </trkpt>
      <trkpt lat="31.578392" lon="-97.149599">
        <ele>121.410176</ele>
        <time>2025-06-07T08:33:57.000Z</time>
      </trkpt>
      <trkpt lat="31.577967" lon="-97.149313">
        <ele>120.670305427</ele>
        <time>2025-06-07T08:34:02.000Z</time>
      </trkpt>
      <trkpt lat="31.577753" lon="-97.149285">
        <ele>120.345103084</ele>
        <time>2025-06-07T08:34:04.000Z</time>
      </trkpt>
      <trkpt lat="31.577654" lon="-97.149194">
        <ele>120.155195917</ele>
        <time>2025-06-07T08:34:05.000Z</time>
      </trkpt>
      <trkpt lat="31.577327" lon="-97.148899">
        <ele>119.53232378</ele>
        <time>2025-06-07T08:34:10.000Z</time>
      </trkpt>
      <trkpt lat="31.576607" lon="-97.148209">
        <ele>118.128529966</ele>
        <time>2025-06-07T08:34:20.000Z</time>
      </trkpt>
      <trkpt lat="31.576536" lon="-97.148323">
        <ele>117.946833735</ele>
        <time>2025-06-07T08:34:21.000Z</time>
      </trkpt>
      <trkpt lat="31.576439" lon="-97.148257">
        <ele>117.777502692</ele>
        <time>2025-06-07T08:34:22.000Z</time>
      </trkpt>
    </trkseg>
  </trk>
</gpx>

<!--
Performance optimized by W3 Total Cache. Learn more: https://www.boldgrid.com/w3-total-cache/?utm_source=w3tc&utm_medium=footer_comment&utm_campaign=free_plugin

Page Caching using Disk: Enhanced{w3tc_pagecache_reject_reason} 

Served from: www.aquabike.world @ 2026-05-10 23:57:09 by W3 Total Cache
-->